M I D A S
Marine Information and Data Acquisition System
Tripno 529 of the Zeeleeuw from 2003-07-02 06:09:36 to 2003-07-02 13:08:40
Back to CruiseResearch ActivitiesStationsMapUnderway DataData graphs

EquipmentUnitsComment
TimeDGPSUTC
LatitudeDGPSDM.mWGS84
LongitudeDGPSDM.mWGS84
TemperatureSBE03/SBE38deg celciusITS90
ConductivitySBE21S/mITS90
SalinitySBE21 Practical Salinity Units
ChlorophylAChelsea fluorimeterg/lCalibrated in Aceton
Missing or incorrect values are displayed as -999
Sea surface data collected by the RV Zeeleeuw from 2003-07-02 06:09:36 to 2003-07-02 13:08:40
                                                                                    Next 1000 lines
Time Latitude Longitude Temperature Conductivity Salinity ChlorophylA
2003-07-02 06:09:44 51°13.63 2°55.96 22.502684 2.352741 15.31766 -0.74754
2003-07-02 06:09:48 51°13.63 2°55.95 22.502371 2.353687 15.324396 -0.74754
2003-07-02 06:09:54 51°13.63 2°55.94 22.502371 2.353687 15.324396 -0.74754
2003-07-02 06:09:58 51°13.64 2°55.93 22.50198 2.353161 15.320897 -0.74754
2003-07-02 06:10:04 51°13.64 2°55.92 22.501668 2.353371 15.322393 -0.71383
2003-07-02 06:10:08 51°13.64 2°55.91 22.502215 2.352741 15.318145 -0.71383
2003-07-02 06:10:14 51°13.65 2°55.89 22.502605 2.351795 15.311651 -0.74754
2003-07-02 06:10:18 51°13.65 2°55.89 22.502996 2.35232 15.315636 -0.74754
2003-07-02 06:10:24 51°13.65 2°55.87 22.502996 2.35232 15.315636 -0.74754
2003-07-02 06:10:28 51°13.66 2°55.87 22.504988 2.352426 15.316385 -0.74754
2003-07-02 06:10:34 51°13.66 2°55.85 22.506512 2.352005 15.313633 -0.71383
2003-07-02 06:10:38 51°13.66 2°55.85 22.505926 2.352531 15.317133 -0.71383
2003-07-02 06:10:44 51°13.67 2°55.83 22.506394 2.351375 15.309142 -0.71383
2003-07-02 06:10:48 51°13.67 2°55.82 22.505613 2.352951 15.32037 -0.74754
2003-07-02 06:10:54 51°13.67 2°55.81 22.505613 2.352951 15.32037 -0.74754
2003-07-02 06:10:58 51°13.67 2°55.8 22.505926 2.351585 15.310639 -0.71383
2003-07-02 06:11:04 51°13.68 2°55.79 22.509012 2.350849 15.305158 -0.74754
2003-07-02 06:11:08 51°13.68 2°55.79 22.508855 2.351375 15.309142 -0.74754
2003-07-02 06:11:14 51°13.68 2°55.77 22.509012 2.350324 15.301658 -0.71383
2003-07-02 06:11:18 51°13.68 2°55.77 22.509168 2.351164 15.307888 -0.74754
2003-07-02 06:11:24 51°13.68 2°55.76 22.509168 2.351164 15.307888 -0.74754
2003-07-02 06:11:28 51°13.69 2°55.75 22.509637 2.352531 15.317376 -0.74754
2003-07-02 06:11:32 51°13.69 2°55.75 22.509949 2.348852 15.290938 -0.74754
2003-07-02 06:11:36 51°13.69 2°55.74 22.511472 2.349062 15.292677 -0.74754
2003-07-02 06:11:40 51°13.69 2°55.74 22.514245 2.348747 15.290432 -0.71383
2003-07-02 06:11:44 51°13.69 2°55.74 22.512605 2.350534 15.303397 -0.71383
2003-07-02 06:11:50 51°13.69 2°55.73 22.512605 2.350534 15.303397 -0.71383
2003-07-02 06:11:54 51°13.69 2°55.73 22.511511 2.347591 15.282442 -0.781249
2003-07-02 06:11:58 51°13.69 2°55.73 22.514285 2.348747 15.290674 -0.74754
2003-07-02 06:12:04 51°13.69 2°55.73 22.514245 2.348222 15.28669 -0.781249
2003-07-02 06:12:08 51°13.69 2°55.73 22.514792 2.349167 15.293425 -0.74754
2003-07-02 06:12:14 51°13.69 2°55.73 22.515769 2.348642 15.289926 -0.74754
2003-07-02 06:12:18 51°13.69 2°55.73 22.515769 2.348642 15.289926 -0.74754
2003-07-02 06:12:24 51°13.69 2°55.73 22.514675 2.348117 15.286184 -0.71383
2003-07-02 06:12:28 51°13.69 2°55.73 22.514597 2.349378 15.295164 -0.74754
2003-07-02 06:12:34 51°13.7 2°55.74 22.513542 2.346855 15.277204 -0.71383
2003-07-02 06:12:38 51°13.7 2°55.74 22.513933 2.346015 15.271218 -0.74754
2003-07-02 06:12:44 51°13.7 2°55.74 22.51573 2.345594 15.268467 -0.74754
2003-07-02 06:12:48 51°13.7 2°55.74 22.51573 2.345594 15.268467 -0.74754
2003-07-02 06:12:54 51°13.71 2°55.74 22.515183 2.343177 15.250775 -0.74754
2003-07-02 06:12:58 51°13.71 2°55.74 22.515261 2.346015 15.271218 -0.74754
2003-07-02 06:13:04 51°13.72 2°55.74 22.518112 2.344438 15.259994 -0.71383
2003-07-02 06:13:08 51°13.72 2°55.74 22.520494 2.344648 15.261008 -0.74754
2003-07-02 06:13:12 51°13.72 2°55.74 22.520182 2.343702 15.254274 -0.74754
2003-07-02 06:13:18 51°13.73 2°55.73 22.520182 2.343702 15.254274 -0.74754
2003-07-02 06:13:24 51°13.73 2°55.73 22.518971 2.343177 15.250534 -0.71383
2003-07-02 06:13:28 51°13.74 2°55.72 22.519128 2.344123 15.257025 -0.71383
2003-07-02 06:13:32 51°13.74 2°55.72 22.51983 2.345279 15.264772 -0.71383
2003-07-02 06:13:38 51°13.75 2°55.71 22.520416 2.346014 15.269526 -0.71383
2003-07-02 06:13:44 51°13.76 2°55.7 22.520885 2.347065 15.27725 -0.71383
2003-07-02 06:13:48 51°13.76 2°55.69 22.520885 2.347065 15.27725 -0.71383
2003-07-02 06:13:54 51°13.77 2°55.69 22.522096 2.34675 15.275005 -0.71383
2003-07-02 06:13:58 51°13.78 2°55.68 22.52397 2.348432 15.287219 -0.74754
2003-07-02 06:14:04 51°13.79 2°55.67 22.525064 2.347696 15.282707 -0.781249
2003-07-02 06:14:08 51°13.8 2°55.66 22.52604 2.348852 15.291422 -0.74754
2003-07-02 06:14:14 51°13.81 2°55.65 22.526743 2.349588 15.296903 -0.74754
2003-07-02 06:14:18 51°13.82 2°55.65 22.526743 2.349588 15.296903 -0.74754
2003-07-02 06:14:24 51°13.83 2°55.64 22.527602 2.349588 15.297388 -0.74754
2003-07-02 06:14:28 51°13.84 2°55.63 22.527836 2.349798 15.299369 -0.71383
2003-07-02 06:14:32 51°13.85 2°55.62 22.528734 2.350113 15.301857 -0.71383
2003-07-02 06:14:38 51°13.86 2°55.61 22.528734 2.348537 15.291114 -0.71383
2003-07-02 06:14:44 51°13.87 2°55.6 22.530843 2.349588 15.298599 -0.74754
2003-07-02 06:14:48 51°13.88 2°55.6 22.530843 2.349588 15.298599 -0.74754
2003-07-02 06:14:54 51°13.9 2°55.59 22.530062 2.3519 15.314582 -0.74754
2003-07-02 06:14:58 51°13.9 2°55.58 22.529437 2.348117 15.288362 -0.74754
2003-07-02 06:15:04 51°13.92 2°55.57 22.531507 2.349903 15.301086 -0.74754
2003-07-02 06:15:08 51°13.93 2°55.56 22.533069 2.349903 15.301329 -0.781249
2003-07-02 06:15:14 51°13.94 2°55.55 -999 2.350008 15.302319 -0.781249
2003-07-02 06:15:20 51°13.95 2°55.54 -999 2.350008 15.302319 -0.781249
2003-07-02 06:15:24 51°13.96 2°55.54 -999 2.348117 15.288846 -0.74754
2003-07-02 06:15:28 51°13.97 2°55.53 37.731675 2.350849 15.307823 -0.74754
2003-07-02 06:15:34 51°13.99 2°55.52 37.626028 2.348222 15.289353 -0.74754
2003-07-02 06:15:38 51°13.99 2°55.52 38.505228 2.348747 15.293095 -0.74754
2003-07-02 06:15:44 51°14.01 2°55.51 37.733592 2.348852 15.293843 -0.74754
2003-07-02 06:15:48 51°14.02 2°55.5 37.733592 2.348852 15.293843 -0.74754
2003-07-02 06:15:54 51°14.03 2°55.49 37.672697 2.350324 15.304807 -0.74754
2003-07-02 06:15:58 51°14.04 2°55.48 36.415281 2.349693 15.300316 -0.74754
2003-07-02 06:16:04 51°14.05 2°55.47 37.778123 2.348117 15.289088 -0.71383
2003-07-02 06:16:08 51°14.06 2°55.46 37.052878 2.347066 15.28112 -0.74754
2003-07-02 06:16:14 51°14.08 2°55.45 36.417782 2.347486 15.284355 -0.781249
2003-07-02 06:16:18 51°14.09 2°55.45 36.417782 2.347486 15.284355 -0.781249
2003-07-02 06:16:24 51°14.1 2°55.44 36.985142 2.35169 15.314782 -0.71383
2003-07-02 06:16:28 51°14.11 2°55.43 36.232763 2.348117 15.289088 -0.71383
2003-07-02 06:16:34 51°14.12 2°55.42 36.313992 2.348642 15.292831 -0.74754
2003-07-02 06:16:38 51°14.13 2°55.41 37.601579 2.347486 15.284597 -0.71383
2003-07-02 06:16:44 51°14.14 2°55.4 37.15761 2.349588 15.29981 -0.74754
2003-07-02 06:16:48 51°14.15 2°55.39 37.15761 2.349588 15.29981 -0.74754
2003-07-02 06:16:54 51°14.17 2°55.38 36.383146 2.347381 15.284091 -0.74754
2003-07-02 06:16:58 51°14.17 2°55.37 36.556273 2.34696 15.281339 -0.71383
2003-07-02 06:17:04 51°14.19 2°55.36 37.586439 2.347591 15.285588 -0.71383
2003-07-02 06:17:08 51°14.19 2°55.35 36.531202 2.347801 15.287327 -0.71383
2003-07-02 06:17:14 51°14.21 2°55.33 35.434349 2.347171 15.282836 -0.74754
2003-07-02 06:17:18 51°14.21 2°55.32 35.434349 2.347171 15.282836 -0.74754
2003-07-02 06:17:24 51°14.23 2°55.31 36.718635 2.344648 15.264874 -0.74754
2003-07-02 06:17:28 51°14.23 2°55.3 35.91267 2.34675 15.2796 -0.74754
2003-07-02 06:17:32 51°14.24 2°55.29 36.95201 2.345804 15.273106 -0.74754
2003-07-02 06:17:38 51°14.25 2°55.27 36.296848 2.350534 15.306547 -0.71383
2003-07-02 06:17:44 51°14.26 2°55.25 36.502035 2.342336 15.247686 -0.74754
2003-07-02 06:17:48 51°14.27 2°55.24 36.502035 2.342336 15.247686 -0.74754
2003-07-02 06:17:54 51°14.28 2°55.22 36.281914 2.347906 15.287833 -0.74754
2003-07-02 06:17:58 51°14.28 2°55.21 37.037956 2.346435 15.277597 -0.74754
2003-07-02 06:18:04 51°14.29 2°55.19 35.357348 2.344018 15.260384 -0.74754
2003-07-02 06:18:08 51°14.3 2°55.18 36.775087 2.345174 15.268374 -0.74754
2003-07-02 06:18:14 51°14.31 2°55.16 36.545084 2.348537 15.292082 -0.74754
2003-07-02 06:18:20 51°14.32 2°55.14 36.545084 2.348537 15.292082 -0.74754
2003-07-02 06:18:24 51°14.33 2°55.13 36.268994 2.339814 15.229971 -0.74754
2003-07-02 06:18:28 51°14.33 2°55.12 37.310756 2.348327 15.290827 -0.74754
2003-07-02 06:18:34 51°14.34 2°55.1 35.225053 2.347591 15.28583 -0.71383
2003-07-02 06:18:38 51°14.35 2°55.09 36.084084 2.351585 15.314518 -0.71383
2003-07-02 06:18:44 51°14.36 2°55.07 35.601781 2.346225 15.276342 -0.74754
2003-07-02 06:18:48 51°14.37 2°55.06 35.601781 2.346225 15.276342 -0.74754
2003-07-02 06:18:54 51°14.38 2°55.04 34.655181 2.358311 15.363414 -0.74754
2003-07-02 06:18:58 51°14.38 2°55.02 36.464773 2.337186 15.212472 -0.74754
2003-07-02 06:19:04 51°14.39 2°55 34.219583 2.346645 15.280787 -0.74754
2003-07-02 06:19:08 51°14.4 2°54.98 36.355355 2.338132 15.220652 -0.680121
2003-07-02 06:19:14 51°14.4 2°54.96 35.606507 2.34675 15.282262 -0.74754
2003-07-02 06:19:18 51°14.41 2°54.95 35.606507 2.34675 15.282262 -0.74754
2003-07-02 06:19:24 51°14.41 2°54.92 36.115949 2.344438 15.265069 -0.781249
2003-07-02 06:19:28 51°14.42 2°54.9 35.610084 2.330986 15.169301 -0.74754
2003-07-02 06:19:34 51°14.42 2°54.88 35.255683 2.327728 15.146118 -0.74754
2003-07-02 06:19:38 51°14.42 2°54.86 35.366302 2.347276 15.285037 -0.74754
2003-07-02 06:19:44 51°14.42 2°54.83 34.745216 2.348747 15.295517 -0.71383
2003-07-02 06:19:48 51°14.42 2°54.81 34.745216 2.348747 15.295517 -0.71383
2003-07-02 06:19:54 51°14.42 2°54.79 34.692243 2.353161 15.326719 -0.74754
2003-07-02 06:19:58 51°14.42 2°54.77 35.720208 2.335295 15.199247 -0.74754
2003-07-02 06:20:04 51°14.42 2°54.74 34.643354 2.34118 15.240904 -0.781249
2003-07-02 06:20:08 51°14.42 2°54.72 34.831767 2.341601 15.243897 -0.71383
2003-07-02 06:20:14 51°14.42 2°54.69 34.831601 2.341916 15.246383 -0.74754
2003-07-02 06:20:18 51°14.42 2°54.67 34.831601 2.341916 15.246383 -0.74754
2003-07-02 06:20:24 51°14.41 2°54.65 36.027793 2.342651 15.251621 -0.74754
2003-07-02 06:20:28 51°14.41 2°54.63 35.778814 2.351164 15.312493 -0.71383
2003-07-02 06:20:34 51°14.41 2°54.6 36.968884 2.34633 15.2783 -0.71383
2003-07-02 06:20:38 51°14.4 2°54.58 36.068653 2.346961 15.282791 -0.74754
2003-07-02 06:20:44 51°14.4 2°54.55 36.396827 2.356945 15.353921 -0.74754
2003-07-02 06:20:48 51°14.4 2°54.53 36.396827 2.356945 15.353921 -0.74754
2003-07-02 06:20:54 51°14.39 2°54.5 35.809198 2.349062 15.29752 -0.71383
2003-07-02 06:20:58 51°14.38 2°54.48 35.777111 2.345804 15.274557 -0.74754
2003-07-02 06:21:04 51°14.38 2°54.45 36.044929 2.348747 15.295275 -0.781249
2003-07-02 06:21:08 51°14.37 2°54.43 35.704902 2.343702 15.259105 -0.71383
2003-07-02 06:21:14 51°14.36 2°54.4 36.312853 2.3519 15.317977 -0.71383
2003-07-02 06:21:18 51°14.36 2°54.38 36.312853 2.3519 15.317977 -0.71383
2003-07-02 06:21:24 51°14.35 2°54.35 34.096463 2.345384 15.271563 -0.71383
2003-07-02 06:21:28 51°14.34 2°54.33 35.34938 2.348012 15.290519 -0.74754
2003-07-02 06:21:34 51°14.34 2°54.3 35.135335 2.342652 15.252346 -0.781249
2003-07-02 06:21:38 51°14.33 2°54.28 35.10763 2.352846 15.325201 -0.74754
2003-07-02 06:21:44 51°14.32 2°54.25 34.758188 2.341706 15.246094 -0.71383
2003-07-02 06:21:48 51°14.31 2°54.23 34.758188 2.341706 15.246094 -0.71383
2003-07-02 06:21:54 51°14.3 2°54.2 35.54301 2.342757 15.253577 -0.74754
2003-07-02 06:21:58 51°14.3 2°54.18 35.302315 2.354423 15.336433 -0.74754
2003-07-02 06:22:04 51°14.29 2°54.15 35.571547 2.338763 15.224659 -0.71383
2003-07-02 06:22:08 51°14.28 2°54.13 35.329721 2.352426 15.321963 -0.74754
2003-07-02 06:22:14 51°14.27 2°54.1 36.296913 2.358416 15.364649 -0.74754
2003-07-02 06:22:18 51°14.26 2°54.08 36.296913 2.358416 15.364649 -0.74754
2003-07-02 06:22:24 51°14.25 2°54.05 34.217378 2.356209 15.349407 -0.74754
2003-07-02 06:22:28 51°14.24 2°54.03 35.467463 2.349903 15.304479 -0.71383
2003-07-02 06:22:32 51°14.24 2°54.01 34.330703 2.34675 15.282262 -0.781249
2003-07-02 06:22:38 51°14.23 2°53.98 34.135429 2.35169 15.317692 -0.74754
2003-07-02 06:22:44 51°14.22 2°53.95 34.243396 2.349063 15.298974 -0.71383
2003-07-02 06:22:48 51°14.21 2°53.94 34.243396 2.349063 15.298974 -0.71383
2003-07-02 06:22:54 51°14.2 2°53.91 35.547739 2.344333 15.265046 -0.781249
2003-07-02 06:22:58 51°14.19 2°53.89 35.630986 2.34654 15.281249 -0.71383
2003-07-02 06:23:04 51°14.18 2°53.86 35.472032 2.343387 15.258551 -0.71383
2003-07-02 06:23:08 51°14.17 2°53.84 36.326644 2.350954 15.312936 -0.74754
2003-07-02 06:23:14 51°14.16 2°53.81 34.196264 2.365984 15.419809 -0.74754
2003-07-02 06:23:18 51°14.16 2°53.79 34.196264 2.365984 15.419809 -0.74754
2003-07-02 06:23:24 51°14.15 2°53.76 35.575782 2.339499 15.231102 -0.71383
2003-07-02 06:23:28 51°14.14 2°53.74 35.067095 2.361885 15.391319 -0.71383
2003-07-02 06:23:34 51°14.13 2°53.71 33.680168 2.353056 15.328155 -0.74754
2003-07-02 06:23:38 51°14.12 2°53.69 34.110111 2.347801 15.290474 -0.71383
2003-07-02 06:23:44 51°14.11 2°53.66 34.203414 2.357996 15.363843 -0.74754
2003-07-02 06:23:48 51°14.1 2°53.64 34.203414 2.357996 15.363843 -0.74754
2003-07-02 06:23:54 51°14.09 2°53.61 35.422573 2.348222 15.294438 -0.71383
2003-07-02 06:24:00 51°14.08 2°53.58 33.782888 2.354948 15.34285 -0.74754
2003-07-02 06:24:04 51°14.08 2°53.56 35.72994 2.338553 15.225332 -0.71383
2003-07-02 06:24:08 51°14.07 2°53.54 34.831204 2.352005 15.321637 -0.74754
2003-07-02 06:24:12 51°14.06 2°53.52 34.932855 2.365353 15.416778 -0.74754
2003-07-02 06:24:18 51°14.05 2°53.49 34.932855 2.365353 15.416778 -0.74754
2003-07-02 06:24:24 51°14.04 2°53.46 33.957833 2.345069 15.27222 -0.74754
2003-07-02 06:24:28 51°14.03 2°53.44 35.349545 2.355999 15.349854 -0.74754
2003-07-02 06:24:34 51°14.02 2°53.41 34.362885 2.341075 15.244018 -0.74754
2003-07-02 06:24:38 51°14.01 2°53.39 33.741998 2.344438 15.268212 -0.71383
2003-07-02 06:24:44 51°14 2°53.35 22.790591 2.342967 15.257491 -0.74754
2003-07-02 06:24:48 51°14 2°53.33 22.790591 2.342967 15.257491 -0.74754
2003-07-02 06:24:54 51°13.98 2°53.3 22.928968 2.350219 15.308664 -0.74754
2003-07-02 06:24:58 51°13.98 2°53.28 22.741435 2.65533 17.527858 1.645828
2003-07-02 06:25:04 51°13.97 2°53.25 21.854421 2.436311 16.260103 1.409862
2003-07-02 06:25:08 51°13.96 2°53.22 21.120562 2.924876 19.821602 0.93793
2003-07-02 06:25:14 51°13.95 2°53.19 20.515782 2.819118 18.699745 0.364871
2003-07-02 06:25:18 51°13.94 2°53.17 20.515782 2.819118 18.699745 0.364871
2003-07-02 06:25:24 51°13.93 2°53.14 20.340584 3.493969 23.19401 0.297452
2003-07-02 06:25:28 51°13.92 2°53.12 20.32967 4.247314 28.543555 3.80323
2003-07-02 06:25:34 51°13.91 2°53.08 19.915381 4.184884 28.211592 5.960631
2003-07-02 06:25:38 51°13.9 2°53.06 19.850975 4.202186 28.657828 8.927059
2003-07-02 06:25:44 51°13.89 2°53.03 19.877572 4.127111 28.453631 7.780939
2003-07-02 06:25:48 51°13.88 2°53.01 19.877572 4.127111 28.453631 7.780939
2003-07-02 06:25:54 51°13.87 2°52.98 19.867964 4.336883 30.444258 6.668529
2003-07-02 06:25:58 51°13.86 2°52.96 19.947218 4.481512 31.901602 6.095469
2003-07-02 06:26:04 51°13.85 2°52.92 19.878869 4.495968 32.207523 5.690956
2003-07-02 06:26:08 51°13.84 2°52.9 19.816377 4.548089 32.782123 5.45499
2003-07-02 06:26:14 51°13.83 2°52.87 19.564018 4.570564 33.079022 5.151606
2003-07-02 06:26:20 51°13.82 2°52.84 19.564018 4.570564 33.079022 5.151606
2003-07-02 06:26:24 51°13.81 2°52.81 19.659801 4.589452 33.325064 5.050477
2003-07-02 06:26:28 51°13.81 2°52.79 19.805584 4.59515 33.422937 4.848221
2003-07-02 06:26:34 51°13.79 2°52.76 19.524308 4.59072 33.421646 4.848221
2003-07-02 06:26:38 51°13.79 2°52.74 19.664558 4.60296 33.558691 4.91564
2003-07-02 06:26:44 51°13.78 2°52.71 19.664721 4.613511 33.682865 4.814512
2003-07-02 06:26:48 51°13.77 2°52.68 19.664721 4.613511 33.682865 4.814512
2003-07-02 06:26:54 51°13.76 2°52.65 19.746032 4.617627 33.737 4.814512
2003-07-02 06:27:00 51°13.74 2°52.62 19.497822 4.619948 33.774237 4.88193
2003-07-02 06:27:04 51°13.74 2°52.6 19.557462 4.622798 33.821557 4.747093
2003-07-02 06:27:08 51°13.73 2°52.58 19.540887 4.625014 33.864904 4.780802
2003-07-02 06:27:14 51°13.72 2°52.54 19.540113 4.627969 33.899463 4.814512
2003-07-02 06:27:18 51°13.71 2°52.52 19.540113 4.627969 33.899463 4.814512
2003-07-02 06:27:24 51°13.7 2°52.49 19.375775 4.628602 33.922456 4.814512
2003-07-02 06:27:28 51°13.69 2°52.47 19.526874 4.626598 33.923229 4.747093
2003-07-02 06:27:34 51°13.68 2°52.43 19.570614 4.612142 33.816545 4.747093
2003-07-02 06:27:38 51°13.67 2°52.41 19.494969 4.624804 33.930918 4.713383
2003-07-02 06:27:44 51°13.66 2°52.38 19.457829 4.621745 33.914969 4.713383
2003-07-02 06:27:48 51°13.65 2°52.36 19.457829 4.621745 33.914969 4.713383
2003-07-02 06:27:54 51°13.64 2°52.33 19.639142 3.477358 24.715557 4.713383
2003-07-02 06:27:58 51°13.63 2°52.3 19.478664 4.625965 33.961768 4.713383
2003-07-02 06:28:04 51°13.62 2°52.27 19.484208 4.632507 34.019626 4.713383
2003-07-02 06:28:08 51°13.61 2°52.25 19.55168 4.629553 34.000511 4.679674
2003-07-02 06:28:14 51°13.6 2°52.22 19.482129 4.629448 34.007726 4.747093
2003-07-02 06:28:18 51°13.59 2°52.19 19.482129 4.629448 34.007726 4.747093
2003-07-02 06:28:24 51°13.58 2°52.16 19.51673 4.630081 34.019292 4.713383
2003-07-02 06:28:28 51°13.58 2°52.14 19.400266 4.627654 33.995272 4.679674
2003-07-02 06:28:34 51°13.56 2°52.11 19.56243 4.62892 34.012047 4.713383
2003-07-02 06:28:38 51°13.56 2°52.08 19.56585 4.627232 34.000459 4.713383
2003-07-02 06:28:44 51°13.55 2°52.05 19.526345 4.623961 33.976995 4.713383
2003-07-02 06:28:48 51°13.54 2°52.03 19.526345 4.623961 33.976995 4.713383
2003-07-02 06:28:54 51°13.53 2°52 19.348089 4.622062 33.960205 4.713383
2003-07-02 06:28:58 51°13.52 2°51.98 19.523697 4.6247 33.993472 4.747093
2003-07-02 06:29:04 51°13.51 2°51.94 19.455423 4.624067 33.994036 4.713383
2003-07-02 06:29:08 51°13.5 2°51.92 19.454974 4.625966 34.011993 4.780802
2003-07-02 06:29:14 51°13.49 2°51.89 19.514163 4.620796 33.969405 4.713383
2003-07-02 06:29:18 51°13.48 2°51.87 19.514163 4.620796 33.969405 4.713383
2003-07-02 06:29:24 51°13.47 2°51.83 19.440129 4.625439 34.013429 4.747093
2003-07-02 06:29:28 51°13.46 2°51.81 19.51347 4.627444 34.030526 4.747093
2003-07-02 06:29:34 51°13.45 2°51.78 19.413611 4.628182 34.040086 4.780802
2003-07-02 06:29:38 51°13.44 2°51.76 19.485675 4.630187 34.056028 4.747093
2003-07-02 06:29:44 51°13.43 2°51.72 19.509192 4.623434 34.006165 4.747093
2003-07-02 06:29:48 51°13.42 2°51.7 19.509192 4.623434 34.006165 4.747093
2003-07-02 06:29:54 51°13.41 2°51.67 19.479561 4.624595 34.018623 4.848221
2003-07-02 06:30:00 51°13.4 2°51.64 19.614123 4.6266 34.040359 4.780802
2003-07-02 06:30:04 51°13.39 2°51.62 19.442862 4.628816 34.05457 4.91564
2003-07-02 06:30:08 51°13.39 2°51.59 19.570858 4.631559 34.077766 4.91564
2003-07-02 06:30:14 51°13.37 2°51.56 19.410877 4.630293 34.069066 4.88193
2003-07-02 06:30:18 51°13.37 2°51.54 19.410877 4.630293 34.069066 4.88193
2003-07-02 06:30:24 51°13.36 2°51.51 19.338735 4.630504 34.074285 4.848221
2003-07-02 06:30:28 51°13.35 2°51.48 19.405898 4.633247 34.093426 4.814512
2003-07-02 06:30:32 51°13.34 2°51.46 19.428788 4.621641 34.000637 4.88193
2003-07-02 06:30:38 51°13.33 2°51.43 19.390511 4.63082 34.078055 4.848221
2003-07-02 06:30:44 51°13.32 2°51.4 19.321903 4.627761 34.052245 4.814512
2003-07-02 06:30:48 51°13.31 2°51.38 19.321903 4.627761 34.052245 4.814512
2003-07-02 06:30:54 51°13.3 2°51.34 19.350212 4.624701 34.027018 4.848221
2003-07-02 06:30:58 51°13.29 2°51.32 19.316919 4.629871 34.067905 4.848221
2003-07-02 06:31:04 51°13.28 2°51.29 19.286593 4.621535 34.006132 4.848221
2003-07-02 06:31:08 51°13.27 2°51.27 19.439109 4.633986 34.104158 4.780802
2003-07-02 06:31:14 51°13.26 2°51.23 19.449224 4.633669 34.107932 4.814512
2003-07-02 06:31:18 51°13.25 2°51.21 19.449224 4.633669 34.107932 4.814512
2003-07-02 06:31:24 51°13.24 2°51.18 19.473323 4.621113 34.006125 4.747093
2003-07-02 06:31:28 51°13.23 2°51.16 19.341921 4.620797 34.005252 4.848221
2003-07-02 06:31:34 51°13.22 2°51.12 19.603706 4.626811 34.064705 4.814512
2003-07-02 06:31:38 51°13.21 2°51.1 19.305191 4.63177 34.106782 4.814512
2003-07-02 06:31:44 51°13.2 2°51.07 19.339348 4.628394 34.079503 4.780802
2003-07-02 06:31:48 51°13.19 2°51.05 19.339348 4.628394 34.079503 4.780802
2003-07-02 06:31:54 51°13.18 2°51.01 19.436988 4.629344 34.089661 4.848221
2003-07-02 06:31:58 51°13.18 2°50.99 19.570818 4.626284 34.064994 4.780802
2003-07-02 06:32:04 51°13.16 2°50.96 19.365486 4.626812 34.082698 4.848221
2003-07-02 06:32:08 51°13.16 2°50.94 19.334037 4.627867 34.087923 4.91564
2003-07-02 06:32:14 51°13.14 2°50.91 19.534533 4.627656 34.083858 4.983059
2003-07-02 06:32:20 51°13.13 2°50.87 19.534533 4.627656 34.083858 4.983059
2003-07-02 06:32:24 51°13.13 2°50.85 19.334732 4.630082 34.099821 4.88193
2003-07-02 06:32:28 51°13.12 2°50.83 19.509925 4.621536 34.036257 4.949349
2003-07-02 06:32:34 51°13.11 2°50.79 19.268686 4.626284 34.078344 4.88193
2003-07-02 06:32:38 51°13.1 2°50.77 19.577454 4.619426 34.018265 4.91564
2003-07-02 06:32:44 51°13.09 2°50.74 19.57436 4.631032 34.119282 4.91564
2003-07-02 06:32:48 51°13.08 2°50.72 19.57436 4.631032 34.119282 4.91564
2003-07-02 06:32:54 51°13.07 2°50.69 19.67025 4.62143 34.042347 4.88193
2003-07-02 06:32:58 51°13.06 2°50.66 19.500919 4.626706 34.077182 4.88193
2003-07-02 06:33:04 51°13.05 2°50.63 19.332934 4.625756 34.072248 4.848221
2003-07-02 06:33:08 51°13.04 2°50.61 19.465128 4.633142 34.133215 4.780802
2003-07-02 06:33:14 51°13.03 2°50.58 19.396185 4.628922 34.098955 4.780802
2003-07-02 06:33:18 51°13.02 2°50.55 19.396185 4.628922 34.098955 4.780802
2003-07-02 06:33:24 51°13.01 2°50.52 19.464802 4.626178 34.073989 4.747093
2003-07-02 06:33:28 51°13 2°50.5 19.633732 4.620797 34.029583 4.780802
2003-07-02 06:33:34 51°12.99 2°50.47 19.569271 4.624912 34.072248 4.780802
2003-07-02 06:33:38 51°12.98 2°50.44 19.466474 4.624174 34.058025 4.747093
2003-07-02 06:33:44 51°12.97 2°50.41 19.333139 4.627867 34.093732 4.747093
2003-07-02 06:33:48 51°12.96 2°50.39 19.333139 4.627867 34.093732 4.747093
2003-07-02 06:33:54 51°12.95 2°50.36 19.42683 4.632193 34.131191 4.780802
2003-07-02 06:33:58 51°12.95 2°50.34 19.491382 4.62755 34.089957 4.814512
2003-07-02 06:34:04 51°12.93 2°50.3 19.326479 4.628183 34.09925 4.747093
2003-07-02 06:34:08 51°12.93 2°50.28 19.361851 4.625968 34.080377 4.848221
2003-07-02 06:34:14 51°12.91 2°50.25 19.4913 4.627339 34.089377 4.747093
2003-07-02 06:34:18 51°12.91 2°50.23 19.4913 4.627339 34.089377 4.747093
2003-07-02 06:34:24 51°12.9 2°50.19 19.521823 4.6285 34.099539 4.780802
2003-07-02 06:34:28 51°12.89 2°50.17 19.422832 4.627445 34.089086 4.713383
2003-07-02 06:34:34 51°12.88 2°50.14 19.354378 4.62027 34.037989 4.713383
2003-07-02 06:34:38 51°12.87 2°50.12 19.388103 4.628605 34.103897 4.747093
2003-07-02 06:34:44 51°12.86 2°50.09 19.449917 4.619215 34.0258 4.747093
2003-07-02 06:34:48 51°12.85 2°50.06 19.449917 4.619215 34.0258 4.747093
2003-07-02 06:34:54 51°12.84 2°50.03 19.416263 4.626706 34.090541 4.679674
2003-07-02 06:34:58 51°12.83 2°50.01 19.386062 4.622697 34.058021 4.747093
2003-07-02 06:35:04 51°12.82 2°49.98 19.513103 4.631666 34.13789 4.713383
2003-07-02 06:35:08 51°12.81 2°49.95 19.309032 4.621642 34.052213 4.747093
2003-07-02 06:35:14 51°12.8 2°49.92 19.340777 4.631138 34.134696 4.713383
2003-07-02 06:35:18 51°12.79 2°49.9 19.340777 4.631138 34.134696 4.713383
2003-07-02 06:35:24 51°12.78 2°49.87 19.339021 4.63156 34.133527 4.747093
2003-07-02 06:35:28 51°12.77 2°49.85 19.60041 4.631349 34.135857 4.679674
2003-07-02 06:35:34 51°12.76 2°49.81 19.367976 4.629028 34.114359 4.713383
2003-07-02 06:35:38 51°12.75 2°49.79 19.395736 4.628395 34.116111 4.713383
2003-07-02 06:35:44 51°12.74 2°49.76 19.291744 4.635675 34.17567 4.679674
2003-07-02 06:35:48 51°12.74 2°49.74 19.291744 4.635675 34.17567 4.679674
2003-07-02 06:35:54 51°12.72 2°49.7 19.463864 4.627234 34.107688 4.612255
2003-07-02 06:35:58 51°12.72 2°49.68 19.257195 4.634515 34.169577 4.612255
2003-07-02 06:36:04 51°12.7 2°49.65 19.362137 4.636625 34.190512 4.578546
2003-07-02 06:36:08 51°12.7 2°49.63 19.397858 4.63462 34.175112 4.578546
2003-07-02 06:36:14 51°12.69 2°49.59 19.338 4.635253 34.180926 4.578546
2003-07-02 06:36:20 51°12.67 2°49.56 19.338 4.635253 34.180926 4.578546
2003-07-02 06:36:24 51°12.67 2°49.54 19.369732 4.626812 34.115838 4.612255
2003-07-02 06:36:28 51°12.66 2°49.52 19.400062 4.627234 34.119325 4.645965
2003-07-02 06:36:34 51°12.65 2°49.48 19.503038 4.601384 33.90642 4.645965
2003-07-02 06:36:38 51°12.64 2°49.46 19.43658 4.627656 34.123977 4.679674
2003-07-02 06:36:44 51°12.63 2°49.43 19.433806 4.634198 34.179204 4.713383
2003-07-02 06:36:48 51°12.62 2°49.41 19.433806 4.634198 34.179204 4.713383
2003-07-02 06:36:54 51°12.61 2°49.38 19.432052 4.631982 34.156811 4.747093
2003-07-02 06:36:58 51°12.6 2°49.35 19.400674 4.631666 34.158857 4.747093
2003-07-02 06:37:04 51°12.59 2°49.32 19.365445 4.631982 34.156811 4.679674
2003-07-02 06:37:08 51°12.58 2°49.3 19.5272 4.633882 34.174838 4.713383
2003-07-02 06:37:14 51°12.57 2°49.27 19.530744 4.636097 34.190818 4.679674
2003-07-02 06:37:18 51°12.56 2°49.24 19.530744 4.636097 34.190818 4.679674
2003-07-02 06:37:24 51°12.55 2°49.21 19.228726 4.622381 34.07632 4.679674
2003-07-02 06:37:28 51°12.55 2°49.19 19.384878 4.626179 34.10828 4.679674
2003-07-02 06:37:34 51°12.53 2°49.16 19.321822 4.622275 34.077192 4.679674
2003-07-02 06:37:38 51°12.53 2°49.13 19.214159 4.62523 34.104507 4.612255
2003-07-02 06:37:44 51°12.52 2°49.1 19.417854 4.624491 34.097241 4.612255
2003-07-02 06:37:48 51°12.51 2°49.08 19.417854 4.624491 34.097241 4.612255
2003-07-02 06:37:54 51°12.5 2°49.05 19.417365 4.627973 34.124846 4.578546
2003-07-02 06:38:00 51°12.49 2°49.01 19.42071 4.633776 34.180964 4.477418
2003-07-02 06:38:04 51°12.48 2°48.99 19.379408 4.630611 34.155382 4.443708
2003-07-02 06:38:08 51°12.47 2°48.97 19.577413 4.635254 34.192009 4.443708
2003-07-02 06:38:14 51°12.46 2°48.94 19.278867 4.634093 34.185331 4.409999
2003-07-02 06:38:18 51°12.45 2°48.92 19.278867 4.634093 34.185331 4.409999
2003-07-02 06:38:24 51°12.44 2°48.88 19.382184 4.632299 34.171086 4.443708
2003-07-02 06:38:28 51°12.43 2°48.86 19.38296 4.622908 34.096964 4.409999
2003-07-02 06:38:34 51°12.42 2°48.83 19.350212 4.62829 34.148435 4.34258
2003-07-02 06:38:38 51°12.41 2°48.81 19.353521 4.625652 34.11789 4.409999
2003-07-02 06:38:44 51°12.4 2°48.77 19.520071 4.636625 34.20977 4.376289
2003-07-02 06:38:48 51°12.4 2°48.75 19.520071 4.636625 34.20977 4.376289
2003-07-02 06:38:54 51°12.38 2°48.72 19.350498 4.621642 34.088827 4.34258
2003-07-02 06:38:58 51°12.38 2°48.7 19.419282 4.623858 34.107723 4.376289
2003-07-02 06:39:04 51°12.37 2°48.66 19.381368 4.62829 34.136197 4.409999
2003-07-02 06:39:08 51°12.36 2°48.64 19.34429 4.626074 34.126038 4.477418
2003-07-02 06:39:14 51°12.35 2°48.61 19.246316 4.620482 34.075746 4.443708
2003-07-02 06:39:18 51°12.34 2°48.59 19.246316 4.620482 34.075746 4.443708
2003-07-02 06:39:24 51°12.33 2°48.55 19.311402 4.622381 34.086786 4.409999
2003-07-02 06:39:28 51°12.32 2°48.53 19.377285 4.633249 34.17952 4.409999
2003-07-02 06:39:34 51°12.31 2°48.5 19.305109 4.634937 34.196978 4.34258
2003-07-02 06:39:38 51°12.3 2°48.48 19.272652 4.622486 34.09173 4.376289
2003-07-02 06:39:44 51°12.29 2°48.45 19.334242 4.637997 34.215272 4.376289
2003-07-02 06:39:48 51°12.28 2°48.42 19.334242 4.637997 34.215272 4.376289
2003-07-02 06:39:54 51°12.27 2°48.39 19.368793 4.633143 34.176898 4.34258
2003-07-02 06:39:58 51°12.26 2°48.37 19.432297 4.636836 34.213851 4.376289
2003-07-02 06:40:04 51°12.25 2°48.34 19.36324 4.622592 34.096676 4.409999
2003-07-02 06:40:08 51°12.25 2°48.31 19.464394 4.639896 34.240324 4.409999
2003-07-02 06:40:14 51°12.23 2°48.28 19.299591 4.638736 34.234816 4.409999
2003-07-02 06:40:18 51°12.23 2°48.26 19.299591 4.638736 34.234816 4.409999
2003-07-02 06:40:24 51°12.22 2°48.23 19.330279 4.633143 34.188567 4.443708
2003-07-02 06:40:28 51°12.21 2°48.2 19.232122 4.638314 34.23834 4.409999
2003-07-02 06:40:34 51°12.2 2°48.17 19.428666 4.62523 34.129547 4.477418
2003-07-02 06:40:38 51°12.19 2°48.15 19.398919 4.640424 34.24995 4.544836
2003-07-02 06:40:44 51°12.18 2°48.12 19.331178 4.623964 34.119079 4.511127
2003-07-02 06:40:48 51°12.17 2°48.09 19.331178 4.623964 34.119079 4.511127
2003-07-02 06:40:54 51°12.16 2°48.06 19.296567 4.6304 34.174635 4.578546
2003-07-02 06:41:00 51°12.15 2°48.03 19.662078 4.638419 34.228107 4.511127
2003-07-02 06:41:04 51°12.14 2°48.01 19.323252 4.634726 34.208664 4.511127
2003-07-02 06:41:08 51°12.13 2°47.99 19.323987 4.627129 34.147584 4.578546
2003-07-02 06:41:14 51°12.12 2°47.95 19.353847 4.633777 34.201978 4.578546
2003-07-02 06:41:18 51°12.11 2°47.93 19.353847 4.633777 34.201978 4.578546
2003-07-02 06:41:24 51°12.1 2°47.9 19.353316 4.630611 34.174629 4.612255
2003-07-02 06:41:28 51°12.1 2°47.88 19.249629 4.627868 34.155442 4.578546
2003-07-02 06:41:34 51°12.08 2°47.84 19.251797 4.640213 34.258148 4.645965
2003-07-02 06:41:38 51°12.08 2°47.82 19.382062 4.631139 34.182495 4.713383
2003-07-02 06:41:44 51°12.07 2°47.79 19.34523 4.633355 34.205497 4.679674
2003-07-02 06:41:48 51°12.06 2°47.77 19.34523 4.633355 34.205497 4.679674
2003-07-02 06:41:54 51°12.05 2°47.73 19.447837 4.634621 34.21305 4.679674
2003-07-02 06:41:58 51°12.04 2°47.71 19.212113 4.627762 34.160404 4.713383
2003-07-02 06:42:04 51°12.03 2°47.68 19.479316 4.64148 34.276236 4.747093
2003-07-02 06:42:08 51°12.02 2°47.65 19.243821 4.641585 34.275353 4.747093
2003-07-02 06:42:14 51°12.01 2°47.62 19.480172 4.64053 34.27189 4.814512
2003-07-02 06:42:18 51°12.01 2°47.6 19.480172 4.64053 34.27189 4.814512
2003-07-02 06:42:24 51°12 2°47.56 19.408224 4.64053 34.271305 4.848221
2003-07-02 06:42:28 51°11.99 2°47.54 19.409897 4.640741 34.273051 4.983059
2003-07-02 06:42:34 51°11.98 2°47.51 19.407571 4.641269 34.280933 4.949349
2003-07-02 06:42:38 51°11.97 2°47.48 19.377816 4.643801 34.298966 4.949349
2003-07-02 06:42:44 51°11.96 2°47.45 19.440537 4.63842 34.256765 5.050477
2003-07-02 06:42:48 51°11.96 2°47.43 19.440537 4.63842 34.256765 5.050477
2003-07-02 06:42:54 51°11.95 2°47.39 19.337428 4.640213 34.268099 5.084187
2003-07-02 06:43:00 51°11.94 2°47.36 19.236172 4.640425 34.276288 5.050477
2003-07-02 06:43:04 51°11.93 2°47.34 19.231303 4.642007 34.284117 5.151606
2003-07-02 06:43:08 51°11.92 2°47.31 19.267541 4.641163 34.280059 5.151606
2003-07-02 06:43:14 51°11.91 2°47.28 19.328686 4.640952 34.280656 5.219024
2003-07-02 06:43:20 51°11.9 2°47.25 19.328686 4.640952 34.280656 5.219024
2003-07-02 06:43:24 51°11.9 2°47.22 19.462274 4.642429 34.290541 5.286443
2003-07-02 06:43:28 51°11.89 2°47.2 19.326725 4.639791 34.272219 5.219024
2003-07-02 06:43:34 51°11.88 2°47.16 19.29346 4.636626 34.247186 5.353862
2003-07-02 06:43:38 51°11.87 2°47.14 19.18948 4.639792 34.278077 5.320153
2003-07-02 06:43:44 51°11.86 2°47.11 19.35838 4.637576 34.256218 5.421281
2003-07-02 06:43:48 51°11.86 2°47.08 19.35838 4.637576 34.256218 5.421281
2003-07-02 06:43:54 51°11.85 2°47.05 19.291417 4.639475 34.276042 5.421281
2003-07-02 06:43:58 51°11.84 2°47.03 19.320882 4.640214 34.284502 5.4887
2003-07-02 06:44:04 51°11.84 2°46.99 19.253392 4.639581 34.278088 5.4887
2003-07-02 06:44:08 51°11.83 2°46.97 19.282505 4.642852 34.306934 5.4887
2003-07-02 06:44:14 51°11.82 2°46.93 19.253555 4.636943 34.262104 5.556118
2003-07-02 06:44:18 51°11.81 2°46.91 19.253555 4.636943 34.262104 5.556118
2003-07-02 06:44:24 51°11.81 2°46.87 19.282587 4.640636 34.28917 5.4887
2003-07-02 06:44:28 51°11.8 2°46.85 19.378428 4.638737 34.278717 5.556118
2003-07-02 06:44:34 51°11.79 2°46.82 19.245989 4.638737 34.280476 5.4887
2003-07-02 06:44:38 51°11.79 2°46.79 19.245007 4.640952 34.298828 5.522409
2003-07-02 06:44:44 51°11.78 2°46.76 19.205074 4.640108 34.291837 5.589828
2003-07-02 06:44:48 51°11.77 2°46.73 19.205074 4.640108 34.291837 5.589828
2003-07-02 06:44:54 51°11.76 2°46.7 19.236131 4.638948 34.28281 5.589828
2003-07-02 06:45:00 51°11.75 2°46.66 19.133457 4.638948 34.283982 5.556118
2003-07-02 06:45:04 51°11.75 2°46.64 19.365771 4.637787 34.281991 5.522409
2003-07-02 06:45:08 51°11.74 2°46.62 19.224266 4.637365 34.277908 5.4887
2003-07-02 06:45:14 51°11.73 2°46.59 19.123256 4.636099 34.270351 5.4887
2003-07-02 06:45:20 51°11.72 2°46.55 19.123256 4.636099 34.270351 5.4887
2003-07-02 06:45:24 51°11.71 2°46.53 19.255682 4.640214 34.300923 5.4887
2003-07-02 06:45:28 51°11.7 2°46.51 19.150334 4.639898 34.304169 5.45499
2003-07-02 06:45:34 51°11.69 2°46.48 19.08108 4.638315 34.286362 5.45499
2003-07-02 06:45:38 51°11.68 2°46.45 19.315366 4.638737 34.298073 5.421281
2003-07-02 06:45:44 51°11.67 2°46.42 19.214528 4.638104 34.293414 5.421281
2003-07-02 06:45:48 51°11.66 2°46.4 19.214528 4.638104 34.293414 5.421281
2003-07-02 06:45:54 51°11.65 2°46.36 19.209044 4.634411 34.269264 5.421281
2003-07-02 06:45:58 51°11.65 2°46.34 19.237726 4.635783 34.277112 5.45499
2003-07-02 06:46:04 51°11.63 2°46.31 19.201759 4.635255 34.27978 5.387571
2003-07-02 06:46:08 51°11.63 2°46.29 19.064925 4.636732 34.289676 5.4887
2003-07-02 06:46:14 51°11.62 2°46.25 19.162048 4.635466 34.282703 5.45499
2003-07-02 06:46:18 51°11.61 2°46.23 19.162048 4.635466 34.282703 5.45499
2003-07-02 06:46:24 51°11.6 2°46.2 19.292193 4.63726 34.298158 5.45499
2003-07-02 06:46:28 51°11.59 2°46.17 19.224103 4.633883 34.271931 5.387571
2003-07-02 06:46:34 51°11.58 2°46.14 19.317818 4.635255 34.287997 5.387571
2003-07-02 06:46:38 51°11.57 2°46.12 19.083417 4.634728 34.287146 5.45499
2003-07-02 06:46:44 51°11.56 2°46.08 19.34768 4.633673 34.286619 5.353862
2003-07-02 06:46:48 51°11.55 2°46.06 19.34768 4.633673 34.286619 5.353862
2003-07-02 06:46:54 51°11.54 2°46.03 19.312669 4.634728 34.293019 5.353862
2003-07-02 06:46:58 51°11.54 2°46.01 19.03888 4.632723 34.27757 5.353862
2003-07-02 06:47:04 51°11.52 2°45.97 19.202087 4.635255 34.295632 5.421281
2003-07-02 06:47:08 51°11.52 2°45.95 19.033751 4.634517 34.297144 5.353862
2003-07-02 06:47:14 51°11.51 2°45.92 19.26292 4.635678 34.310297 5.421281
2003-07-02 06:47:18 51°11.5 2°45.89 19.26292 4.635678 34.310297 5.421281
2003-07-02 06:47:24 51°11.49 2°45.86 19.127271 4.631774 34.28144 5.320153
2003-07-02 06:47:28 51°11.48 2°45.84 19.218538 4.635256 34.312088 5.320153
2003-07-02 06:47:34 51°11.47 2°45.81 19.11547 4.62903 34.266907 5.353862
2003-07-02 06:47:38 51°11.46 2°45.78 19.111126 4.634306 34.311266 5.387571
2003-07-02 06:47:44 51°11.45 2°45.75 19.274288 4.633462 34.304262 5.252734
2003-07-02 06:47:48 51°11.44 2°45.73 19.274288 4.633462 34.304262 5.252734
2003-07-02 06:47:54 51°11.43 2°45.69 19.169418 4.634412 34.310377 5.353862
2003-07-02 06:47:58 51°11.42 2°45.67 19.03129 4.631668 34.298198 5.286443
2003-07-02 06:48:04 51°11.41 2°45.64 19.230976 4.62998 34.285952 5.252734
2003-07-02 06:48:08 51°11.41 2°45.62 19.159754 4.63093 34.298538 5.252734
2003-07-02 06:48:14 51°11.39 2°45.58 19.089321 4.631458 34.305859 5.286443
2003-07-02 06:48:18 51°11.39 2°45.56 19.089321 4.631458 34.305859 5.286443
2003-07-02 06:48:24 51°11.38 2°45.53 19.086533 4.631458 34.304094 5.252734
2003-07-02 06:48:28 51°11.37 2°45.51 19.35058 4.630403 34.304162 5.353862
2003-07-02 06:48:34 51°11.36 2°45.47 19.080875 4.629136 34.29718 5.252734
2003-07-02 06:48:38 51°11.35 2°45.45 19.041997 4.631458 34.316455 5.286443
2003-07-02 06:48:44 51°11.34 2°45.42 19.139561 4.629559 34.304216 5.320153
2003-07-02 06:48:48 51°11.33 2°45.39 19.139561 4.629559 34.304216 5.320153
2003-07-02 06:48:54 51°11.32 2°45.36 19.264883 4.628503 34.296043 5.353862
2003-07-02 06:48:58 51°11.31 2°45.34 19.22979 4.627871 34.297849 5.387571
2003-07-02 06:49:04 51°11.3 2°45.3 19.159181 4.627976 34.301081 5.387571
2003-07-02 06:49:08 51°11.3 2°45.28 19.15742 4.631353 34.32736 5.387571
2003-07-02 06:49:14 51°11.28 2°45.25 18.98639 4.626604 34.295575 5.387571
2003-07-02 06:49:18 51°11.28 2°45.23 18.98639 4.626604 34.295575 5.387571
2003-07-02 06:49:24 51°11.27 2°45.19 19.014835 4.625444 34.288878 5.45499
2003-07-02 06:49:28 51°11.26 2°45.17 19.048314 4.62154 34.264097 5.421281
2003-07-02 06:49:34 51°11.25 2°45.14 19.010198 4.623756 34.285451 5.4887
2003-07-02 06:49:38 51°11.24 2°45.12 19.082515 4.622173 34.264648 5.4887
2003-07-02 06:49:44 51°11.23 2°45.08 19.109364 4.623756 34.288396 5.522409
2003-07-02 06:49:48 51°11.22 2°45.06 19.109364 4.623756 34.288396 5.522409
2003-07-02 06:49:54 51°11.21 2°45.03 18.979821 4.62365 34.284574 5.623537
2003-07-02 06:49:58 51°11.21 2°45.01 19.142224 4.62249 34.283175 5.556118
2003-07-02 06:50:04 51°11.19 2°44.97 19.069395 4.624811 34.303058 5.589828
2003-07-02 06:50:08 51°11.19 2°44.95 19.102601 4.621435 34.272639 5.623537
2003-07-02 06:50:14 51°11.18 2°44.92 19.101167 4.623545 34.293713 5.589828
2003-07-02 06:50:18 51°11.17 2°44.89 19.101167 4.623545 34.293713 5.589828
2003-07-02 06:50:24 51°11.16 2°44.86 19.096125 4.623862 34.297523 5.657247
2003-07-02 06:50:28 51°11.15 2°44.84 19.229626 4.624284 34.300442 5.690956
2003-07-02 06:50:34 51°11.14 2°44.81 18.997105 4.623123 34.29433 5.657247
2003-07-02 06:50:38 51°11.13 2°44.78 19.023617 4.627555 34.334123 5.690956
2003-07-02 06:50:44 51°11.12 2°44.75 19.058978 4.624917 34.311601 5.724665
2003-07-02 06:50:48 51°11.12 2°44.73 19.058978 4.624917 34.311601 5.724665
2003-07-02 06:50:54 51°11.1 2°44.7 19.130835 4.622068 34.288506 5.724665
2003-07-02 06:50:58 51°11.1 2°44.67 19.021155 4.622701 34.297306 5.724665
2003-07-02 06:51:04 51°11.09 2°44.64 19.156765 4.62344 34.304626 5.724665
2003-07-02 06:51:08 51°11.08 2°44.62 19.087107 4.624917 34.32104 5.825794
2003-07-02 06:51:14 51°11.07 2°44.58 19.048314 4.621646 34.295019 5.825794
2003-07-02 06:51:18 51°11.06 2°44.56 19.048314 4.621646 34.295019 5.825794
2003-07-02 06:51:24 51°11.05 2°44.53 19.012907 4.622912 34.306138 5.859503
2003-07-02 06:51:28 51°11.04 2°44.5 18.947172 4.621224 34.292688 5.893212
2003-07-02 06:51:34 51°11.03 2°44.47 19.107028 4.620063 34.283037 5.926922
2003-07-02 06:51:38 51°11.03 2°44.45 19.075668 4.618903 34.275743 5.859503
2003-07-02 06:51:44 51°11.02 2°44.41 19.074438 4.620908 34.293594 6.02805
2003-07-02 06:51:48 51°11.01 2°44.39 19.074438 4.620908 34.293594 6.02805
2003-07-02 06:51:54 51°11 2°44.36 19.105307 4.619747 34.288659 5.893212
2003-07-02 06:51:58 51°10.99 2°44.34 19.005027 4.619114 34.283394 5.960631
2003-07-02 06:52:04 51°10.98 2°44.3 18.965655 4.617848 34.275221 6.162888
2003-07-02 06:52:08 51°10.97 2°44.28 18.965326 4.618164 34.277854 6.095469
2003-07-02 06:52:14 51°10.96 2°44.25 19.102847 4.619114 34.286342 6.061759
2003-07-02 06:52:18 51°10.95 2°44.23 19.102847 4.619114 34.286342 6.061759
2003-07-02 06:52:24 51°10.94 2°44.19 18.958919 4.620275 34.300717 6.162888
2003-07-02 06:52:28 51°10.94 2°44.17 19.066237 4.617215 34.27998 6.061759
2003-07-02 06:52:34 51°10.93 2°44.14 19.092846 4.617742 34.2826 6.230306
2003-07-02 06:52:38 51°10.92 2°44.11 19.021976 4.616582 34.275303 6.264016
2003-07-02 06:52:44 51°10.91 2°44.08 19.053688 4.61616 34.271202 6.331435
2003-07-02 06:52:48 51°10.9 2°44.06 19.053688 4.61616 34.271202 6.331435
2003-07-02 06:52:54 51°10.89 2°44.03 18.949965 4.616476 34.276785 6.365144
2003-07-02 06:52:58 51°10.88 2°44 19.052334 4.616687 34.27913 6.432563
2003-07-02 06:53:04 51°10.87 2°43.97 19.086287 4.6131 34.256358 6.499982
2003-07-02 06:53:08 51°10.86 2°43.95 19.052006 4.615316 34.271847 6.466272
2003-07-02 06:53:14 51°10.85 2°43.92 19.046304 4.615316 34.275976 6.5674
2003-07-02 06:53:18 51°10.85 2°43.89 19.046304 4.615316 34.275976 6.5674
2003-07-02 06:53:24 51°10.83 2°43.86 19.21641 4.615843 34.278597 6.60111
2003-07-02 06:53:28 51°10.83 2°43.84 18.977317 4.615105 34.27304 6.60111
2003-07-02 06:53:34 51°10.82 2°43.8 19.111044 4.615316 34.274796 6.668529
2003-07-02 06:53:38 51°10.81 2°43.78 19.073987 4.614472 34.271312 6.668529
2003-07-02 06:53:44 51°10.8 2°43.75 19.337591 4.617532 34.299141 6.735947
2003-07-02 06:53:48 51°10.79 2°43.73 19.337591 4.617532 34.299141 6.735947
2003-07-02 06:53:54 51°10.78 2°43.69 19.135916 4.614261 34.276637 6.702238
2003-07-02 06:53:58 51°10.77 2°43.67 19.09838 4.615421 34.280395 6.769657
2003-07-02 06:54:04 51°10.76 2°43.64 19.031946 4.613206 34.266084 6.803366
2003-07-02 06:54:08 51°10.76 2°43.62 18.994888 4.611729 34.253789 6.837076
2003-07-02 06:54:14 51°10.74 2°43.58 18.886762 4.612678 34.264643 6.837076
2003-07-02 06:54:18 51°10.74 2°43.56 18.886762 4.612678 34.264643 6.837076
2003-07-02 06:54:24 51°10.73 2°43.53 19.087517 4.608036 34.231898 6.904494
2003-07-02 06:54:28 51°10.72 2°43.5 19.011799 4.611412 34.258824 7.005623
2003-07-02 06:54:34 51°10.71 2°43.47 18.976331 4.607614 34.230153 6.938204
2003-07-02 06:54:38 51°10.7 2°43.45 19.07452 4.610885 34.259153 7.106751
2003-07-02 06:54:44 51°10.69 2°43.42 18.934478 4.608458 34.240719 7.106751
2003-07-02 06:54:48 51°10.69 2°43.39 18.934478 4.608458 34.240719 7.106751
2003-07-02 06:54:54 51°10.67 2°43.36 19.065376 4.611307 34.257946 7.309007
2003-07-02 06:54:58 51°10.67 2°43.34 18.959741 4.610463 34.25859 7.376426
2003-07-02 06:55:04 51°10.66 2°43.3 18.955921 4.606453 34.235826 7.443845
2003-07-02 06:55:08 51°10.65 2°43.28 19.017831 4.606137 34.23142 7.443845
2003-07-02 06:55:14 51°10.64 2°43.25 18.946926 4.607931 34.249898 7.578683
2003-07-02 06:55:18 51°10.63 2°43.23 18.946926 4.607931 34.249898 7.578683
2003-07-02 06:55:24 51°10.62 2°43.19 18.974483 4.605187 34.229411 7.612392
2003-07-02 06:55:28 51°10.62 2°43.17 18.970706 4.605504 34.234998 7.71352
2003-07-02 06:55:34 51°10.6 2°43.14 18.993862 4.605082 34.235024 7.74723
2003-07-02 06:55:38 51°10.6 2°43.11 19.018857 4.604238 34.233305 7.882067
2003-07-02 06:55:44 51°10.59 2°43.08 18.877182 4.600862 34.206948 7.848358
2003-07-02 06:55:48 51°10.58 2°43.06 18.877182 4.600862 34.206948 7.848358
2003-07-02 06:55:54 51°10.57 2°43.02 18.761871 4.603183 34.234551 7.915777
2003-07-02 06:55:58 51°10.56 2°43 18.797777 4.605715 34.249155 8.016905
2003-07-02 06:56:04 51°10.55 2°42.97 18.920014 4.602022 34.233738 7.915777
2003-07-02 06:56:08 51°10.54 2°42.95 18.805145 4.604027 34.248674 8.118033
2003-07-02 06:56:14 51°10.53 2°42.91 18.86575 4.601917 34.232858 8.185452
2003-07-02 06:56:18 51°10.53 2°42.89 18.86575 4.601917 34.232858 8.185452
2003-07-02 06:56:24 51°10.52 2°42.86 18.922768 4.601179 34.238518 8.151742
2003-07-02 06:56:28 51°10.51 2°42.84 18.97937 4.600018 34.237707 8.084324
2003-07-02 06:56:34 51°10.5 2°42.8 18.778056 4.593898 34.186089 8.084324
2003-07-02 06:56:40 51°10.49 2°42.77 18.694498 4.596536 34.217536 8.185452
2003-07-02 06:56:44 51°10.48 2°42.75 18.747536 4.596853 34.228453 8.252871
2003-07-02 06:56:48 51°10.47 2°42.72 18.747536 4.596853 34.228453 8.252871
2003-07-02 06:56:54 51°10.46 2°42.69 18.809508 4.595376 34.226183 8.252871
2003-07-02 06:56:58 51°10.46 2°42.67 18.844855 4.597803 34.252355 8.320289
2003-07-02 06:57:04 51°10.45 2°42.64 18.896423 4.595587 34.243333 8.353999
2003-07-02 06:57:08 51°10.44 2°42.61 18.888488 4.59601 34.25515 8.219161
2003-07-02 06:57:14 51°10.43 2°42.58 18.782008 4.593267 34.242313 8.387708
2003-07-02 06:57:18 51°10.42 2°42.56 18.782008 4.593267 34.242313 8.387708
2003-07-02 06:57:24 51°10.41 2°42.52 18.770067 4.594427 34.254971 8.387708
2003-07-02 06:57:28 51°10.41 2°42.5 18.80247 4.594638 34.266222 8.522546
2003-07-02 06:57:34 51°10.39 2°42.47 18.62417 4.592845 34.257165 8.522546
2003-07-02 06:57:38 51°10.39 2°42.45 18.752603 4.590102 34.241949 8.589965
2003-07-02 06:57:44 51°10.38 2°42.41 18.714861 4.591157 34.253141 8.724802
2003-07-02 06:57:48 51°10.37 2°42.39 18.714861 4.591157 34.253141 8.724802
2003-07-02 06:57:54 51°10.36 2°42.36 18.712058 4.588203 34.240903 8.623674
2003-07-02 06:57:58 51°10.35 2°42.33 18.803457 4.58968 34.25741 8.589965
2003-07-02 06:58:04 51°10.34 2°42.3 18.898601 4.588414 34.249196 8.691093
2003-07-02 06:58:08 51°10.34 2°42.28 18.526378 4.589258 34.261006 8.589965
2003-07-02 06:58:14 51°10.33 2°42.24 18.7594 4.58852 34.261362 8.657383
2003-07-02 06:58:20 51°10.32 2°42.21 18.7594 4.58852 34.261362 8.657383
2003-07-02 06:58:24 51°10.31 2°42.19 18.719683 4.584616 34.234049 8.657383
2003-07-02 06:58:28 51°10.3 2°42.17 18.714531 4.586304 34.251736 8.522546
2003-07-02 06:58:32 51°10.3 2°42.14 18.644141 4.586515 34.260038 8.488836
2003-07-02 06:58:38 51°10.29 2°42.11 18.750502 4.585988 34.262162 8.657383
2003-07-02 06:58:44 51°10.28 2°42.07 18.640469 4.584722 34.256915 8.556255
2003-07-02 06:58:48 51°10.27 2°42.05 18.640469 4.584722 34.256915 8.556255
2003-07-02 06:58:54 51°10.26 2°42.02 18.705669 4.585038 34.257781 8.455127
2003-07-02 06:58:58 51°10.26 2°42 18.809878 4.583983 34.259057 8.522546
2003-07-02 06:59:04 51°10.25 2°41.96 18.633744 4.583667 34.256406 8.455127
2003-07-02 06:59:08 51°10.24 2°41.94 18.806421 4.584616 34.260789 8.387708
2003-07-02 06:59:14 51°10.23 2°41.9 18.730603 4.581979 34.246434 8.623674
2003-07-02 06:59:18 51°10.22 2°41.88 18.730603 4.581979 34.246434 8.623674
2003-07-02 06:59:24 51°10.21 2°41.85 18.720342 4.585566 34.27707 8.488836
2003-07-02 06:59:28 51°10.21 2°41.83 18.75215 4.583245 34.259416 8.589965
2003-07-02 06:59:34 51°10.2 2°41.79 18.637045 4.583245 34.260605 8.556255
2003-07-02 06:59:38 51°10.19 2°41.77 18.708142 4.579552 34.233842 8.455127
2003-07-02 06:59:44 51°10.18 2°41.73 18.790572 4.581768 34.253589 8.589965
2003-07-02 06:59:48 51°10.18 2°41.71 18.790572 4.581768 34.253589 8.589965
2003-07-02 06:59:54 51°10.17 2°41.68 18.646245 4.579025 34.234776 8.488836
2003-07-02 06:59:58 51°10.16 2°41.65 18.663117 4.577442 34.225682 8.488836
2003-07-02 07:00:04 51°10.15 2°41.62 18.686293 4.575332 34.215735 8.488836
2003-07-02 07:00:08 51°10.14 2°41.6 18.552615 4.580713 34.26082 8.455127
2003-07-02 07:00:14 51°10.13 2°41.56 18.535014 4.579869 34.261488 8.28658
2003-07-02 07:00:20 51°10.12 2°41.53 18.535014 4.579869 34.261488 8.28658
2003-07-02 07:00:24 51°10.12 2°41.51 18.552987 4.579025 34.260965 8.28658
2003-07-02 07:00:28 51°10.11 2°41.49 18.713583 4.572062 34.213904 8.252871
2003-07-02 07:00:34 51°10.1 2°41.45 18.500709 4.578392 34.272941 8.219161
2003-07-02 07:00:40 51°10.09 2°41.42 18.48446 4.577549 34.272421 8.28658
2003-07-02 07:00:44 51°10.08 2°41.39 18.716592 4.575544 34.266937 8.387708
2003-07-02 07:00:48 51°10.08 2°41.37 18.716592 4.575544 34.266937 8.387708
2003-07-02 07:00:54 51°10.07 2°41.34 18.676562 4.575861 34.276754 8.320289
2003-07-02 07:00:58 51°10.06 2°41.31 18.641295 4.569847 34.2406 8.252871
2003-07-02 07:01:04 51°10.05 2°41.28 18.537783 4.574595 34.28165 8.252871
2003-07-02 07:01:08 51°10.05 2°41.26 18.469158 4.566788 34.229828 8.151742
2003-07-02 07:01:14 51°10.04 2°41.22 18.641336 4.571219 34.276 8.118033
2003-07-02 07:01:18 51°10.03 2°41.2 18.641336 4.571219 34.276 8.118033
2003-07-02 07:01:24 51°10.02 2°41.17 18.481276 4.570375 34.275484 8.050614
2003-07-02 07:01:28 51°10.01 2°41.14 18.640304 4.571641 34.28971 8.016905
2003-07-02 07:01:34 51°10 2°41.11 18.541419 4.563623 34.228909 8.118033
2003-07-02 07:01:40 51°9.99 2°41.08 18.575209 4.568265 34.271504 8.084324
2003-07-02 07:01:44 51°9.99 2°41.05 18.763065 4.566894 34.263564 8.016905
2003-07-02 07:01:48 51°9.98 2°41.03 18.763065 4.566894 34.263564 8.016905
2003-07-02 07:01:54 51°9.97 2°41 18.529064 4.566788 34.2567 8.016905
2003-07-02 07:02:00 51°9.96 2°40.96 18.648267 4.566999 34.265647 8.084324
2003-07-02 07:02:04 51°9.95 2°40.94 18.500833 4.567632 34.262597 8.050614
2003-07-02 07:02:08 51°9.95 2°40.92 18.463409 4.56721 34.266224 8.050614
2003-07-02 07:02:14 51°9.94 2°40.88 18.494384 4.56816 34.271215 8.118033
2003-07-02 07:02:20 51°9.93 2°40.85 18.494384 4.56816 34.271215 8.118033
2003-07-02 07:02:24 51°9.92 2°40.83 18.384773 4.56816 34.27959 8.050614
2003-07-02 07:02:28 51°9.92 2°40.8 18.376118 4.570586 34.299392 8.050614
2003-07-02 07:02:32 51°9.91 2°40.78 18.542741 4.565522 34.264594 8.118033
2003-07-02 07:02:40 51°9.9 2°40.74 18.475941 4.564678 34.268266 8.151742
2003-07-02 07:02:44 51°9.89 2°40.71 18.470275 4.566261 34.289961 8.219161
2003-07-02 07:02:48 51°9.88 2°40.69 18.470275 4.566261 34.289961 8.219161
2003-07-02 07:02:54 51°9.87 2°40.66 18.404109 4.563729 34.266864 8.252871
2003-07-02 07:03:00 51°9.86 2°40.62 18.468662 4.563307 34.270498 8.28658
2003-07-02 07:03:04 51°9.86 2°40.6 18.536667 4.560775 34.256978 8.252871
2003-07-02 07:03:08 51°9.85 2°40.58 18.570666 4.560353 34.260612 8.252871
2003-07-02 07:03:14 51°9.84 2°40.54 18.567981 4.560142 34.256441 8.252871
2003-07-02 07:03:20 51°9.83 2°40.51 18.567981 4.560142 34.256441 8.252871
2003-07-02 07:03:24 51°9.83 2°40.49 18.467628 4.561197 34.268315 8.219161
2003-07-02 07:03:28 51°9.82 2°40.46 18.470978 4.562991 34.285809 8.219161
2003-07-02 07:03:34 51°9.81 2°40.43 18.399803 4.558876 34.253571 8.219161
2003-07-02 07:03:40 51°9.8 2°40.39 18.398437 4.559087 34.252952 8.151742
2003-07-02 07:03:44 51°9.79 2°40.37 18.532535 4.5555 34.225157 8.320289
2003-07-02 07:03:48 51°9.79 2°40.35 18.532535 4.5555 34.225157 8.320289
2003-07-02 07:03:54 51°9.78 2°40.31 18.462871 4.55972 34.26427 8.118033
2003-07-02 07:04:00 51°9.77 2°40.28 18.428613 4.55856 34.251506 8.118033
2003-07-02 07:04:04 51°9.76 2°40.26 18.498063 4.561303 34.276993 8.219161
2003-07-02 07:04:08 51°9.76 2°40.23 18.495996 4.558349 34.252725 8.219161
2003-07-02 07:04:14 51°9.75 2°40.2 18.625697 4.557927 34.253965 8.252871
2003-07-02 07:04:20 51°9.74 2°40.17 18.625697 4.557927 34.253965 8.252871
2003-07-02 07:04:24 51°9.73 2°40.14 18.422281 4.558349 34.253923 8.185452
2003-07-02 07:04:28 51°9.72 2°40.12 18.383034 4.557399 34.246529 8.252871
2003-07-02 07:04:34 51°9.71 2°40.09 18.556168 4.557505 34.248615 8.28658
2003-07-02 07:04:40 51°9.7 2°40.05 18.350269 4.55761 34.249503 8.28658
2003-07-02 07:04:44 51°9.7 2°40.03 18.416735 4.551807 34.201259 8.252871
2003-07-02 07:04:48 51°9.69 2°40.01 18.416735 4.551807 34.201259 8.252871
2003-07-02 07:04:54 51°9.68 2°39.97 18.33759 4.556977 34.242378 8.353999
2003-07-02 07:05:00 51°9.67 2°39.94 18.369284 4.557083 34.251652 8.522546
2003-07-02 07:05:04 51°9.66 2°39.92 18.672644 4.558243 34.263221 8.421418
2003-07-02 07:05:08 51°9.66 2°39.89 18.497898 4.554023 34.226491 8.455127
2003-07-02 07:05:14 51°9.65 2°39.86 18.421619 4.556344 34.248429 8.522546
2003-07-02 07:05:20 51°9.64 2°39.82 18.421619 4.556344 34.248429 8.522546
2003-07-02 07:05:24 51°9.63 2°39.8 18.450544 4.555606 34.24281 8.589965
2003-07-02 07:05:28 51°9.63 2°39.78 18.449799 4.556239 34.254133 8.623674
2003-07-02 07:05:34 51°9.62 2°39.74 18.610179 4.552124 34.220082 8.657383
2003-07-02 07:05:38 51°9.61 2°39.72 18.470523 4.552019 34.225183 8.657383
2003-07-02 07:05:44 51°9.6 2°39.69 18.462458 4.557611 34.269882 8.623674
2003-07-02 07:05:48 51°9.59 2°39.66 18.462458 4.557611 34.269882 8.623674
2003-07-02 07:05:54 51°9.59 2°39.63 18.290002 4.554234 34.24804 8.657383
2003-07-02 07:05:58 51°9.58 2°39.61 18.250306 4.55434 34.255525 8.758512
2003-07-02 07:06:04 51°9.57 2°39.57 18.445827 4.553602 34.252901 8.724802
2003-07-02 07:06:08 51°9.56 2°39.55 18.368082 4.551913 34.238678 8.82593
2003-07-02 07:06:14 51°9.56 2°39.51 18.331913 4.554551 34.266303 8.893349
2003-07-02 07:06:20 51°9.55 2°39.48 18.331913 4.554551 34.266303 8.893349
2003-07-02 07:06:24 51°9.54 2°39.46 18.357892 4.551703 34.241697 8.893349
2003-07-02 07:06:28 51°9.54 2°39.43 18.454391 4.55012 34.242156 9.028187
2003-07-02 07:06:34 51°9.53 2°39.4 18.314629 4.555501 34.291724 9.028187
2003-07-02 07:06:38 51°9.52 2°39.37 18.383034 4.549593 34.251514 9.163024
2003-07-02 07:06:44 51°9.51 2°39.34 18.414458 4.55202 34.276786 9.163024
2003-07-02 07:06:48 51°9.51 2°39.32 18.414458 4.55202 34.276786 9.163024
2003-07-02 07:06:54 51°9.5 2°39.28 18.239601 4.550543 34.264327 9.230443
2003-07-02 07:07:00 51°9.49 2°39.25 18.30696 4.552336 34.286069 9.297862
2003-07-02 07:07:04 51°9.48 2°39.22 18.273994 4.550754 34.278729 9.129315
2003-07-02 07:07:08 51°9.48 2°39.2 18.200499 4.551387 34.283469 9.028187
2003-07-02 07:07:14 51°9.47 2°39.17 18.303602 4.551281 34.286188 9.466409
2003-07-02 07:07:20 51°9.46 2°39.13 18.303602 4.551281 34.286188 9.466409
2003-07-02 07:07:24 51°9.45 2°39.11 18.24151 4.548222 34.268788 9.500118
2003-07-02 07:07:28 51°9.44 2°39.09 18.404316 4.553286 34.300697 9.39899
2003-07-02 07:07:34 51°9.44 2°39.05 18.231799 4.549488 34.278871 9.297862
2003-07-02 07:07:38 51°9.43 2°39.03 18.16769 4.546745 34.259929 9.668665
2003-07-02 07:07:44 51°9.42 2°38.99 18.335435 4.54896 34.279232 9.769794
2003-07-02 07:07:48 51°9.41 2°38.97 18.335435 4.54896 34.279232 9.769794
2003-07-02 07:07:54 51°9.41 2°38.94 18.199212 4.548327 34.268475 9.736084
2003-07-02 07:08:00 51°9.4 2°38.9 18.439952 4.547061 34.264405 9.803503
2003-07-02 07:08:04 51°9.39 2°38.88 18.335891 4.549805 34.288162 9.870922
2003-07-02 07:08:08 51°9.39 2°38.85 18.403033 4.548222 34.271795 10.073178
2003-07-02 07:08:14 51°9.38 2°38.82 18.403281 4.551704 34.303592 10.106888
2003-07-02 07:08:18 51°9.37 2°38.8 18.403281 4.551704 34.303592 10.106888
2003-07-02 07:08:24 51°9.36 2°38.76 18.470151 4.550649 34.294083 10.174306
2003-07-02 07:08:28 51°9.35 2°38.74 18.269307 4.547272 34.269193 10.174306
2003-07-02 07:08:34 51°9.35 2°38.7 18.336181 4.547483 34.267366 10.376563
2003-07-02 07:08:40 51°9.34 2°38.67 18.235409 4.551809 34.31171 10.342853
2003-07-02 07:08:44 51°9.33 2°38.65 18.438586 4.548011 34.27242 10.54511
2003-07-02 07:08:48 51°9.32 2°38.62 18.438586 4.548011 34.27242 10.54511
2003-07-02 07:08:52 51°9.32 2°38.6 18.234372 4.549383 34.288812 10.612529
2003-07-02 07:09:00 51°9.31 2°38.55 18.371023 4.551176 34.303955 10.713657
2003-07-02 07:09:04 51°9.3 2°38.53 18.439124 4.550332 34.289004 10.679947
2003-07-02 07:09:08 51°9.3 2°38.51 18.476934 4.547694 34.270951 10.882204
2003-07-02 07:09:14 51°9.29 2°38.47 18.336347 4.547694 34.269748 10.983332
2003-07-02 07:09:20 51°9.28 2°38.44 18.336347 4.547694 34.269748 10.983332
2003-07-02 07:09:24 51°9.28 2°38.41 18.337756 4.542736 34.229098 11.017042
2003-07-02 07:09:28 51°9.27 2°38.39 18.272169 4.548433 34.276584 10.882204
2003-07-02 07:09:34 51°9.27 2°38.35 18.538485 4.546956 34.262913 11.050751
2003-07-02 07:09:40 51°9.26 2°38.31 18.230305 4.546323 34.256969 11.11817
2003-07-02 07:09:44 51°9.25 2°38.29 18.165447 4.544107 34.241274 11.151879
2003-07-02 07:09:48 51°9.25 2°38.27 18.165447 4.544107 34.241274 11.151879
2003-07-02 07:09:54 51°9.24 2°38.23 18.266901 4.549066 34.286742 11.151879
2003-07-02 07:10:00 51°9.24 2°38.2 18.159797 4.546851 34.269842 11.151879
2003-07-02 07:10:04 51°9.23 2°38.17 18.363692 4.547167 34.264694 11.219298
2003-07-02 07:10:08 51°9.23 2°38.15 18.397278 4.548433 34.279592 11.219298
2003-07-02 07:10:14 51°9.22 2°38.11 18.2939 4.550438 34.295312 11.185589
2003-07-02 07:10:20 51°9.21 2°38.07 18.2939 4.550438 34.295312 11.185589
2003-07-02 07:10:24 51°9.21 2°38.05 18.427868 4.550121 34.29565 11.253007
2003-07-02 07:10:28 51°9.2 2°38.03 18.192776 4.549594 34.28638 11.151879
2003-07-02 07:10:34 51°9.2 2°37.99 18.429193 4.545162 34.252584 11.219298
2003-07-02 07:10:40 51°9.19 2°37.95 18.326401 4.549383 34.287608 11.151879
2003-07-02 07:10:44 51°9.19 2°37.93 18.498063 4.546429 34.269288 11.253007
2003-07-02 07:10:48 51°9.18 2°37.91 18.498063 4.546429 34.269288 11.253007
2003-07-02 07:10:54 51°9.17 2°37.87 18.397029 4.547695 34.279375 11.11817
2003-07-02 07:10:58 51°9.17 2°37.85 18.260886 4.54569 34.267866 11.11817
2003-07-02 07:11:04 51°9.16 2°37.81 18.430475 4.545163 34.259801 11.253007
2003-07-02 07:11:08 51°9.16 2°37.79 18.262545 4.548328 34.282914 11.151879
2003-07-02 07:11:14 51°9.15 2°37.75 18.430186 4.549699 34.296904 11.253007
2003-07-02 07:11:18 51°9.15 2°37.73 18.430186 4.549699 34.296904 11.253007
2003-07-02 07:11:24 51°9.14 2°37.69 18.260346 4.546112 34.26842 11.151879
2003-07-02 07:11:28 51°9.14 2°37.67 18.357768 4.547906 34.278148 11.185589
2003-07-02 07:11:34 51°9.13 2°37.63 18.224245 4.552231 34.317081 11.219298
2003-07-02 07:11:40 51°9.13 2°37.6 18.25765 4.547589 34.276679 11.151879
2003-07-02 07:11:44 51°9.12 2°37.58 18.325074 4.550121 34.302876 11.185589
2003-07-02 07:11:48 51°9.12 2°37.56 18.325074 4.550121 34.302876 11.185589
2003-07-02 07:11:54 51°9.12 2°37.52 18.358265 4.5478 34.278461 11.151879
2003-07-02 07:11:58 51°9.12 2°37.5 18.252547 4.551176 34.310581 11.050751
2003-07-02 07:12:04 51°9.11 2°37.47 18.324328 4.552759 34.325152 11.050751
2003-07-02 07:12:08 51°9.11 2°37.45 18.355406 4.553392 34.324471 11.017042
2003-07-02 07:12:14 51°9.11 2°37.42 18.356981 4.55086 34.309716 10.983332
2003-07-02 07:12:20 51°9.11 2°37.4 18.356981 4.55086 34.309716 10.983332
2003-07-02 07:12:24 51°9.11 2°37.38 18.455012 4.55202 34.315299 11.11817
2003-07-02 07:12:28 51°9.1 2°37.37 18.312598 4.552442 34.319466 11.050751
2003-07-02 07:12:34 51°9.1 2°37.34 18.485039 4.550649 34.308536 11.08446
2003-07-02 07:12:40 51°9.1 2°37.32 18.345132 4.547378 34.286938 11.11817
2003-07-02 07:12:44 51°9.1 2°37.31 18.409822 4.552653 34.325467 11.08446
2003-07-02 07:12:48 51°9.1 2°37.29 18.409822 4.552653 34.325467 11.08446
2003-07-02 07:12:54 51°9.1 2°37.28 18.238024 4.552864 34.327852 10.983332
2003-07-02 07:12:58 51°9.1 2°37.27 18.205855 4.550649 34.307331 11.017042
2003-07-02 07:13:04 51°9.1 2°37.25 18.301239 4.551071 34.318127 10.882204
2003-07-02 07:13:08 51°9.1 2°37.24 18.371313 4.54991 34.310132 10.882204
2003-07-02 07:13:14 51°9.1 2°37.23 18.40088 4.549594 34.304446 10.814785
2003-07-02 07:13:20 51°9.1 2°37.23 18.40088 4.549594 34.304446 10.814785
2003-07-02 07:13:24 51°9.1 2°37.22 18.431676 4.546956 34.283373 10.781076
2003-07-02 07:13:28 51°9.09 2°37.22 18.329633 4.550543 34.316082 10.781076
2003-07-02 07:13:34 51°9.09 2°37.22 18.363153 4.550755 34.320276 10.814785
2003-07-02 07:13:38 51°9.09 2°37.22 18.430641 4.549911 34.314352 10.747366
2003-07-02 07:13:44 51°9.09 2°37.21 18.225781 4.54664 34.292747 10.848494
2003-07-02 07:13:48 51°9.09 2°37.21 18.225781 4.54664 34.292747 10.848494
2003-07-02 07:13:54 51°9.09 2°37.21 18.292614 4.552654 34.338131 10.781076
2003-07-02 07:14:00 51°9.09 2°37.21 18.292987 4.548433 34.300668 10.781076
2003-07-02 07:14:04 51°9.09 2°37.21 18.394545 4.547801 34.3122 10.781076
2003-07-02 07:14:10 51°9.09 2°37.21 18.393883 4.547906 34.307664 10.54511
2003-07-02 07:14:16 51°9.08 2°37.21 18.324245 4.549278 34.315033 10.578819
2003-07-02 07:14:20 51°9.08 2°37.21 18.324245 4.549278 34.315033 10.578819
2003-07-02 07:14:26 51°9.08 2°37.21 18.29079 4.547273 34.310154 10.376563
2003-07-02 07:14:32 51°9.08 2°37.21 18.254995 4.550122 34.32699 10.140597
2003-07-02 07:14:36 51°9.08 2°37.21 18.188042 4.54875 34.321432 10.275435
2003-07-02 07:14:42 51°9.08 2°37.21 18.187087 4.549805 34.325522 10.208016
2003-07-02 07:14:46 51°9.08 2°37.21 18.221506 4.546007 34.302469 10.275435
2003-07-02 07:14:52 51°9.08 2°37.21 18.221506 4.546007 34.302469 10.275435
2003-07-02 07:14:58 51°9.08 2°37.21 18.222211 4.548328 34.313642 10.309144
2003-07-02 07:15:02 51°9.08 2°37.21 18.357436 4.548645 34.316317 10.443982
2003-07-02 07:15:08 51°9.08 2°37.21 18.325157 4.548328 34.310627 10.410272
2003-07-02 07:15:14 51°9.08 2°37.21 18.323955 4.547062 34.304149 10.477691
2003-07-02 07:15:18 51°9.07 2°37.21 18.389825 4.546007 34.294028 10.5114
2003-07-02 07:15:24 51°9.07 2°37.21 18.389825 4.546007 34.294028 10.5114
2003-07-02 07:15:28 51°9.07 2°37.21 18.15398 4.549278 34.323477 10.679947
2003-07-02 07:15:34 51°9.07 2°37.21 18.221838 4.546218 34.300634 10.54511
2003-07-02 07:15:38 51°9.07 2°37.21 18.495004 4.54548 34.291981 10.443982
2003-07-02 07:15:44 51°9.07 2°37.21 18.153108 4.547062 34.304149 10.578819
2003-07-02 07:15:48 51°9.07 2°37.21 18.289919 4.546429 34.309052 10.679947
2003-07-02 07:15:52 51°9.07 2°37.21 18.289919 4.546429 34.309052 10.679947
2003-07-02 07:15:56 51°9.07 2°37.21 18.253252 4.546218 34.295811 10.848494
2003-07-02 07:16:00 51°9.07 2°37.21 18.183141 4.547168 34.303232 11.017042
2003-07-02 07:16:06 51°9.06 2°37.21 18.426958 4.550544 34.334781 11.050751
2003-07-02 07:16:10 51°9.06 2°37.21 18.183764 4.54759 34.306798 11.08446
2003-07-02 07:16:14 51°9.06 2°37.21 18.322297 4.547801 34.3122 10.983332
2003-07-02 07:16:20 51°9.06 2°37.21 18.322297 4.547801 34.3122 10.983332
2003-07-02 07:16:24 51°9.06 2°37.21 18.251924 4.54875 34.319622 11.050751
2003-07-02 07:16:28 51°9.06 2°37.21 18.223415 4.546957 34.305067 10.983332
2003-07-02 07:16:34 51°9.06 2°37.21 18.254165 4.546535 34.308134 10.983332
2003-07-02 07:16:38 51°9.06 2°37.21 18.118073 4.546007 34.298248 10.814785
2003-07-02 07:16:44 51°9.06 2°37.21 18.286684 4.546957 34.303861 10.612529
2003-07-02 07:16:48 51°9.05 2°37.21 18.286684 4.546957 34.303861 10.612529
2003-07-02 07:16:54 51°9.05 2°37.21 18.183764 4.546113 34.30517 10.747366
2003-07-02 07:16:58 51°9.05 2°37.21 18.283118 4.548539 34.320855 10.5114
2003-07-02 07:17:04 51°9.05 2°37.21 18.38763 4.546429 34.305433 10.443982
2003-07-02 07:17:08 51°9.05 2°37.21 18.215321 4.544425 34.287887 10.612529
2003-07-02 07:17:14 51°9.05 2°37.21 18.283367 4.545796 34.298876 10.342853
2003-07-02 07:17:18 51°9.05 2°37.21 18.283367 4.545796 34.298876 10.342853
2003-07-02 07:17:24 51°9.05 2°37.21 18.248107 4.547062 34.303546 10.208016
2003-07-02 07:17:28 51°9.05 2°37.21 18.317199 4.546007 34.306691 10.342853
2003-07-02 07:17:34 51°9.04 2°37.21 18.351098 4.546851 34.307793 10.410272
2003-07-02 07:17:40 51°9.04 2°37.21 18.214988 4.547273 34.308345 10.241725
2003-07-02 07:17:44 51°9.04 2°37.21 18.282371 4.55086 34.344701 10.208016
2003-07-02 07:17:48 51°9.04 2°37.2 18.282371 4.55086 34.344701 10.208016
2003-07-02 07:17:54 51°9.04 2°37.2 18.315292 4.546957 34.311098 9.97205
2003-07-02 07:18:00 51°9.04 2°37.2 18.17903 4.546007 34.304881 9.837212
2003-07-02 07:18:04 51°9.04 2°37.2 18.246613 4.546535 34.304515 9.870922
2003-07-02 07:18:08 51°9.04 2°37.2 18.179653 4.545374 34.299531 9.803503
2003-07-02 07:18:14 51°9.04 2°37.2 18.211833 4.547168 34.321933 9.668665
2003-07-02 07:18:20 51°9.04 2°37.2 18.211833 4.547168 34.321933 9.668665
2003-07-02 07:18:24 51°9.04 2°37.2 18.314629 4.547906 34.325159 9.567537
2003-07-02 07:18:28 51°9.04 2°37.2 18.347908 4.546746 34.311124 9.500118
2003-07-02 07:18:34 51°9.04 2°37.2 18.246282 4.547379 34.316475 9.230443
2003-07-02 07:18:38 51°9.04 2°37.2 18.416445 4.547168 34.316502 8.994477
2003-07-02 07:18:44 51°9.04 2°37.2 18.213577 4.545269 34.302258 8.994477
2003-07-02 07:18:48 51°9.03 2°37.2 18.213577 4.545269 34.302258 8.994477
2003-07-02 07:18:54 51°9.03 2°37.2 18.420501 4.546535 34.312357 9.028187
2003-07-02 07:18:58 51°9.03 2°37.2 18.314007 4.546113 34.309393 9.061896
2003-07-02 07:19:04 51°9.03 2°37.2 18.280505 4.545374 34.303149 9.028187
2003-07-02 07:19:08 51°9.03 2°37.2 18.24736 4.545163 34.302572 9.061896
2003-07-02 07:19:14 51°9.03 2°37.2 18.184013 4.549172 34.332845 8.994477
2003-07-02 07:19:18 51°9.03 2°37.2 18.184013 4.549172 34.332845 8.994477
2003-07-02 07:19:24 51°9.03 2°37.2 18.215528 4.548645 34.326574 9.028187
2003-07-02 07:19:28 51°9.03 2°37.2 18.424681 4.54548 34.303438 8.994477
2003-07-02 07:19:34 51°9.03 2°37.2 18.257774 4.547273 34.317393 8.893349
2003-07-02 07:19:40 51°9.04 2°37.2 18.255824 4.550016 34.33334 8.623674
2003-07-02 07:19:44 51°9.04 2°37.2 18.292407 4.546746 34.314141 8.421418
2003-07-02 07:19:48 51°9.04 2°37.2 18.292407 4.546746 34.314141 8.421418
2003-07-02 07:19:54 51°9.04 2°37.2 18.156806 4.547801 34.318836 8.353999
2003-07-02 07:19:58 51°9.04 2°37.2 18.259309 4.546113 34.30698 8.016905
2003-07-02 07:20:04 51°9.04 2°37.2 18.262877 4.546957 34.310495 7.915777
2003-07-02 07:20:08 51°9.04 2°37.2 18.498146 4.547062 34.308371 7.848358
2003-07-02 07:20:14 51°9.04 2°37.2 18.229309 4.545269 34.291404 7.71352
2003-07-02 07:20:18 51°9.04 2°37.2 18.229309 4.545269 34.291404 7.71352
2003-07-02 07:20:24 51°9.04 2°37.2 18.229309 4.54875 34.316002 7.612392
2003-07-02 07:20:28 51°9.04 2°37.2 18.297424 4.551071 34.336825 7.612392
2003-07-02 07:20:34 51°9.04 2°37.2 18.194728 4.547695 34.311911 7.74723
2003-07-02 07:20:38 51°9.04 2°37.2 18.226611 4.549594 34.330376 7.74723
2003-07-02 07:20:44 51°9.04 2°37.2 18.192984 4.544741 34.283933 7.71352
2003-07-02 07:20:48 51°9.04 2°37.2 18.192984 4.544741 34.283933 7.71352
2003-07-02 07:20:54 51°9.04 2°37.2 18.192112 4.546746 34.300872 7.915777
2003-07-02 07:21:00 51°9.05 2°37.2 18.22466 4.550966 34.337744 7.915777
2003-07-02 07:21:04 51°9.05 2°37.2 18.259309 4.548961 34.318389 7.848358
2003-07-02 07:21:08 51°9.05 2°37.19 18.22466 4.54548 34.290776 7.848358
2003-07-02 07:21:14 51°9.05 2°37.19 18.191821 4.550333 34.326963 7.848358
2003-07-02 07:21:18 51°9.05 2°37.19 18.191821 4.550333 34.326963 7.848358
2003-07-02 07:21:24 51°9.05 2°37.19 18.192153 4.550333 34.332394 7.780939
2003-07-02 07:21:28 51°9.05 2°37.19 18.360585 4.547168 34.303232 7.814648
2003-07-02 07:21:34 51°9.05 2°37.19 18.225449 4.54759 34.312829 7.915777
2003-07-02 07:21:38 51°9.05 2°37.19 18.123477 4.552759 34.34566 8.118033
2003-07-02 07:21:44 51°9.05 2°37.19 18.29307 4.548539 34.316029 8.118033
2003-07-02 07:21:48 51°9.06 2°37.19 18.29307 4.548539 34.316029 8.118033
2003-07-02 07:21:54 51°9.06 2°37.19 18.464774 4.548012 34.30735 8.151742
2003-07-02 07:22:00 51°9.06 2°37.19 18.295766 4.547273 34.304726 8.118033
2003-07-02 07:22:04 51°9.06 2°37.19 18.292905 4.546113 34.296125 8.118033
2003-07-02 07:22:08 51°9.06 2°37.19 18.191489 4.546324 34.297908 8.151742
2003-07-02 07:22:14 51°9.06 2°37.19 18.290375 4.54875 34.320828 8.185452
2003-07-02 07:22:20 51°9.06 2°37.19 18.290375 4.54875 34.320828 8.185452
2003-07-02 07:22:24 51°9.06 2°37.19 18.191032 4.550227 34.333916 8.252871
2003-07-02 07:22:28 51°9.07 2°37.18 18.122729 4.547484 34.307113 8.118033
2003-07-02 07:22:34 51°9.07 2°37.18 18.117158 4.550016 34.330926 8.219161
2003-07-02 07:22:38 51°9.07 2°37.18 18.115662 4.548223 34.312751 8.387708
2003-07-02 07:22:44 51°9.07 2°37.18 18.115579 4.54759 34.31102 8.387708
2003-07-02 07:22:48 51°9.07 2°37.18 18.115579 4.54759 34.31102 8.387708
2003-07-02 07:22:54 51°9.07 2°37.18 18.114914 4.547695 34.309499 8.455127
2003-07-02 07:22:58 51°9.07 2°37.18 18.116992 4.552232 34.345427 9.702375
2003-07-02 07:23:04 51°9.07 2°37.18 18.117408 4.548961 34.321405 8.82593
2003-07-02 07:23:08 51°9.08 2°37.18 18.117325 4.548539 34.313616 8.219161
2003-07-02 07:23:14 51°9.08 2°37.18 18.119279 4.548117 34.322115 8.118033
2003-07-02 07:23:20 51°9.08 2°37.18 18.119279 4.548117 34.322115 8.118033
2003-07-02 07:23:24 51°9.08 2°37.18 18.117907 4.549383 34.325575 8.455127
2003-07-02 07:23:28 51°9.08 2°37.18 18.117907 4.54759 34.314036 8.387708
2003-07-02 07:23:34 51°9.08 2°37.18 18.117616 4.548328 34.317865 8.387708
2003-07-02 07:23:40 51°9.08 2°37.18 18.116743 4.547906 34.311282 8.455127
2003-07-02 07:23:44 51°9.09 2°37.18 18.117533 4.546324 34.300923 8.353999
2003-07-02 07:23:48 51°9.09 2°37.18 18.117533 4.546324 34.300923 8.353999
2003-07-02 07:23:54 51°9.09 2°37.18 18.118613 4.546746 34.305092 8.556255
2003-07-02 07:23:58 51°9.09 2°37.17 18.118364 4.544003 34.280705 8.556255
2003-07-02 07:24:04 51°9.09 2°37.17 18.118281 4.548856 34.318704 8.691093
2003-07-02 07:24:08 51°9.09 2°37.17 18.118364 4.547379 34.305015 8.758512
2003-07-02 07:24:14 51°9.09 2°37.17 18.119486 4.545902 34.300371 8.589965
2003-07-02 07:24:20 51°9.09 2°37.17 18.119486 4.545902 34.300371 8.589965
2003-07-02 07:24:24 51°9.1 2°37.17 18.119237 4.549172 34.315347 8.623674
2003-07-02 07:24:28 51°9.1 2°37.17 18.120526 4.548223 34.315163 8.657383
2003-07-02 07:24:34 51°9.1 2°37.17 18.122022 4.5497 34.327044 8.522546
2003-07-02 07:24:40 51°9.1 2°37.17 18.122646 4.547379 34.305618 8.623674
2003-07-02 07:24:44 51°9.1 2°37.17 18.122355 4.545902 34.292534 8.657383
2003-07-02 07:24:48 51°9.1 2°37.17 18.122355 4.545902 34.292534 8.657383
2003-07-02 07:24:54 51°9.1 2°37.17 18.122853 4.542525 34.26461 8.691093
2003-07-02 07:25:00 51°9.1 2°37.17 18.124017 4.547484 34.30651 8.724802
2003-07-02 07:25:04 51°9.1 2°37.16 18.125555 4.548856 34.318704 8.792221
2003-07-02 07:25:08 51°9.1 2°37.16 18.125555 4.547168 34.302026 8.758512
2003-07-02 07:25:14 51°9.11 2°37.16 18.126096 4.545058 34.28721 8.927059
2003-07-02 07:25:18 51°9.11 2°37.16 18.126096 4.545058 34.28721 8.927059
2003-07-02 07:25:24 51°9.11 2°37.16 18.126677 4.547484 34.310128 8.927059
2003-07-02 07:25:28 51°9.11 2°37.16 18.127592 4.548856 34.311467 8.927059
2003-07-02 07:25:34 51°9.11 2°37.16 18.127675 4.54875 34.319622 8.792221
2003-07-02 07:25:38 51°9.11 2°37.16 18.128423 4.550227 34.324262 8.85964
2003-07-02 07:25:44 51°9.11 2°37.16 18.162747 4.548539 34.309998 8.893349
2003-07-02 07:25:48 51°9.11 2°37.16 18.162747 4.548539 34.309998 8.893349
2003-07-02 07:25:54 51°9.11 2°37.16 18.128964 4.546851 34.299352 8.85964
2003-07-02 07:25:58 51°9.11 2°37.16 18.129545 4.5497 34.321614 8.927059
2003-07-02 07:26:04 51°9.11 2°37.16 18.134948 4.550122 34.323974 8.893349
2003-07-02 07:26:08 51°9.11 2°37.16 18.142554 4.548012 34.306144 8.792221
2003-07-02 07:26:14 51°9.11 2°37.16 18.142761 4.548223 34.304913 8.792221
2003-07-02 07:26:20 51°9.11 2°37.15 18.142761 4.548223 34.304913 8.792221
2003-07-02 07:26:24 51°9.11 2°37.15 18.14621 4.549278 34.31443 8.758512
2003-07-02 07:26:28 51°9.11 2°37.15 18.149244 4.549278 34.315033 8.691093
2003-07-02 07:26:34 51°9.11 2°37.15 18.152069 4.54875 34.308164 8.28658
2003-07-02 07:26:40 51°9.11 2°37.15 18.15585 4.546851 34.29212 8.118033
2003-07-02 07:26:44 51°9.11 2°37.15 18.156182 4.550649 34.318782 8.151742
2003-07-02 07:26:48 51°9.11 2°37.15 18.156182 4.550649 34.318782 8.151742
2003-07-02 07:26:54 51°9.11 2°37.15 18.154604 4.548539 34.300354 8.185452
2003-07-02 07:27:00 51°9.11 2°37.15 18.158592 4.550755 34.319071 7.983195
2003-07-02 07:27:04 51°9.11 2°37.15 18.161749 4.550121 34.308299 7.949486
2003-07-02 07:27:08 51°9.11 2°37.15 18.164824 4.549383 34.301459 8.016905
2003-07-02 07:27:14 51°9.11 2°37.15 18.169102 4.548961 34.299099 7.983195
2003-07-02 07:27:20 51°9.11 2°37.15 18.169102 4.548961 34.299099 7.983195
2003-07-02 07:27:24 51°9.11 2°37.15 18.203156 4.551176 34.309376 7.983195
2003-07-02 07:27:28 51°9.11 2°37.15 18.168729 4.551176 34.308774 7.949486
2003-07-02 07:27:34 51°9.11 2°37.15 18.163411 4.554447 34.333983 7.882067
2003-07-02 07:27:38 51°9.11 2°37.15 18.164076 4.549699 34.298108 7.679811
2003-07-02 07:27:44 51°9.11 2°37.15 18.164824 4.554974 34.33 7.780939
2003-07-02 07:27:48 51°9.11 2°37.15 18.164824 4.554974 34.33 7.780939
2003-07-02 07:27:54 51°9.11 2°37.15 18.165488 4.553075 34.313364 7.71352
2003-07-02 07:27:58 51°9.11 2°37.15 18.167524 4.550965 34.30097 7.646101
2003-07-02 07:28:04 51°9.11 2°37.14 18.202077 4.551071 34.292229 7.578683
2003-07-02 07:28:08 51°9.11 2°37.14 18.166319 4.54991 34.288451 7.511264
2003-07-02 07:28:14 51°9.11 2°37.14 18.167981 4.54991 34.292062 7.309007
2003-07-02 07:28:18 51°9.11 2°37.14 18.167981 4.54991 34.292062 7.309007
2003-07-02 07:28:24 51°9.11 2°37.14 18.171512 4.55202 34.308071 7.477554
2003-07-02 07:28:28 51°9.11 2°37.14 18.173713 4.551282 34.301233 7.410136
2003-07-02 07:28:34 51°9.11 2°37.14 18.176621 4.55086 34.300079 7.14046
2003-07-02 07:28:38 51°9.11 2°37.14 18.179403 4.55297 34.314883 6.837076
2003-07-02 07:28:44 51°9.11 2°37.14 18.175956 4.551176 34.294925 6.668529
2003-07-02 07:28:48 51°9.11 2°37.14 18.175956 4.551176 34.294925 6.668529
2003-07-02 07:28:54 51°9.11 2°37.14 18.172633 4.553497 34.319337 6.668529
2003-07-02 07:29:00 51°9.11 2°37.14 18.173339 4.553497 34.312109 6.499982
2003-07-02 07:29:04 51°9.11 2°37.14 18.176413 4.552337 34.305925 6.297725
2003-07-02 07:29:08 51°9.11 2°37.14 18.173256 4.552759 34.313704 6.162888
2003-07-02 07:29:14 51°9.11 2°37.14 18.172882 4.553286 34.311532 5.893212
2003-07-02 07:29:20 51°9.11 2°37.14 18.172882 4.553286 34.311532 5.893212
2003-07-02 07:29:24 51°9.11 2°37.14 18.172052 4.556662 34.335816 5.926922
2003-07-02 07:29:28 51°9.11 2°37.14 18.175125 4.554341 34.321041 6.061759
2003-07-02 07:29:34 51°9.1 2°37.14 18.172633 4.551176 34.296128 6.196597
2003-07-02 07:29:40 51°9.1 2°37.14 18.17417 4.553497 34.315723 5.960631
2003-07-02 07:29:44 51°9.1 2°37.14 18.175956 4.549488 34.282481 5.825794
2003-07-02 07:29:48 51°9.1 2°37.14 18.175956 4.549488 34.282481 5.825794
2003-07-02 07:29:54 51°9.1 2°37.14 18.17579 4.549171 34.278005 5.792084
2003-07-02 07:30:00 51°9.1 2°37.14 18.17687 4.554763 34.322797 5.690956
2003-07-02 07:30:04 51°9.1 2°37.14 18.210339 4.551704 34.300582 5.623537
2003-07-02 07:30:08 51°9.1 2°37.14 18.179694 4.552337 34.300507 5.556118
2003-07-02 07:30:14 51°9.1 2°37.14 18.183681 4.553075 34.309751 5.556118
2003-07-02 07:30:20 51°9.1 2°37.14 18.183681 4.553075 34.309751 5.556118
2003-07-02 07:30:24 51°9.1 2°37.14 18.180026 4.552864 34.309174 5.556118
2003-07-02 07:30:28 51°9.1 2°37.14 18.180151 4.55202 34.303253 5.522409
2003-07-02 07:30:34 51°9.1 2°37.14 18.181189 4.55202 34.300243 5.556118
2003-07-02 07:30:40 51°9.1 2°37.13 18.176621 4.552125 34.296921 5.623537
2003-07-02 07:30:44 51°9.1 2°37.13 18.171802 4.550121 34.283011 5.556118
2003-07-02 07:30:48 51°9.1 2°37.13 18.171802 4.550121 34.283011 5.556118
2003-07-02 07:30:54 51°9.1 2°37.13 18.17309 4.556346 34.331337 5.589828
2003-07-02 07:31:00 51°9.1 2°37.13 18.17903 4.554447 34.318318 5.4887
2003-07-02 07:31:04 51°9.1 2°37.13 18.178116 4.555818 34.328088 5.45499
2003-07-02 07:31:08 51°9.1 2°37.13 18.180816 4.553392 34.305801 5.45499
2003-07-02 07:31:14 51°9.1 2°37.13 18.181646 4.552864 34.303756 5.320153
2003-07-02 07:31:18 51°9.1 2°37.13 18.181646 4.552864 34.303756 5.320153
2003-07-02 07:31:24 51°9.1 2°37.13 18.181355 4.553814 34.312975 5.353862
2003-07-02 07:31:28 51°9.1 2°37.13 18.178656 4.554236 34.31172 5.320153
2003-07-02 07:31:34 51°9.1 2°37.13 18.176039 4.551493 34.301208 5.387571
2003-07-02 07:31:38 51°9.1 2°37.13 18.178199 4.556135 34.332567 5.421281
2003-07-02 07:31:44 51°9.1 2°37.13 18.182726 4.553075 34.307945 5.353862
2003-07-02 07:31:48 51°9.1 2°37.13 18.182726 4.553075 34.307945 5.353862
2003-07-02 07:31:54 51°9.1 2°37.13 18.186298 4.553392 34.304597 5.421281
2003-07-02 07:32:00 51°9.09 2°37.13 18.189495 4.555291 34.321829 5.320153
2003-07-02 07:32:04 51°9.09 2°37.13 18.191945 4.553497 34.308497 5.45499
2003-07-02 07:32:08 51°9.09 2°37.13 18.186464 4.556029 34.331074 5.4887
2003-07-02 07:32:14 51°9.09 2°37.13 18.184304 4.554341 34.316223 5.556118
2003-07-02 07:32:20 51°9.09 2°37.13 18.184304 4.554341 34.316223 5.556118
2003-07-02 07:32:24 51°9.09 2°37.13 18.17957 4.554552 34.315596 5.556118
2003-07-02 07:32:28 51°9.09 2°37.13 18.178822 4.55508 34.321855 5.522409
2003-07-02 07:32:34 51°9.09 2°37.13 18.184346 4.554974 34.314341 5.4887
2003-07-02 07:32:38 51°9.09 2°37.13 18.188665 4.554446 34.306278 5.4887
2003-07-02 07:32:44 51°9.09 2°37.13 18.191115 4.554341 34.30599 5.522409
2003-07-02 07:32:48 51°9.09 2°37.12 18.191115 4.554341 34.30599 5.522409